Flight Track Log - Related Links

Times and Time Zones

All times are in EDT time to prevent confusion due to time zone crossing. See the UAL139 flight status page for this flight to view local times or setup timezone preferences in your user account.

Time Position Orientation Groundspeed Altitude Reporting Facility
EDT Latitude Longitude Course Direction KTS MPH feet Rate Location/Type
Wed 02:44:02 PM 39.8650 -104.6960 293° West 143 165 5,200  Level FlightAware ADS-B
Wed 02:44:22 PM 39.8820 -104.6960 360° North 201 231 5,300 1,000 Climbing FlightAware ADS-B
Wed 02:44:44 PM 39.9030 -104.6970 358° North 215 247 5,900 1,875 Climbing FlightAware ADS-B
Wed 02:44:54 PM 39.9130 -104.7000 347° North 218 251 6,300 2,333 Climbing FlightAware ADS-B
Wed 02:45:02 PM 39.9210 -104.7050 334° Northwest 220 253 6,600 2,087 Climbing FlightAware ADS-B
Wed 02:45:17 PM 39.9329 -104.7166 323° Northwest 228 262 7,100 2,129 Climbing FlightAware ADS-B (KEIK)
Wed 02:46:04 PM 39.9530 -104.7770 293° West 244 281 8,800 2,000 Climbing FlightAware ADS-B
Wed 02:46:23 PM 39.9550 -104.8040 276° West 255 293 9,300 2,049 Climbing FlightAware ADS-B
Wed 02:46:45 PM 39.9520 -104.8390 264° West 268 308 10,200 1,756 Climbing FlightAware ADS-B
Wed 02:47:04 PM 39.9480 -104.8637 258° West 292 336 10,500 1,125 Climbing FlightAware ADS-B (KEIK)
Wed 02:47:33 PM 39.9436 -104.9252 265° West 320 368 11,100 1,574 Climbing FlightAware ADS-B (KEIK)
Wed 02:48:05 PM 39.9451 -104.9865 272° West 339 390 12,100 1,500 Climbing FlightAware ADS-B (KEIK)
Wed 02:48:45 PM 39.9367 -105.0717 263° West 378 435 12,900 1,800 Climbing FlightAware ADS-B (KEIK)
Wed 02:49:45 PM 39.9203 -105.2108 261° West 396 456 15,100 2,242 Climbing FlightAware ADS-B (KEIK)
Wed 02:50:24 PM 39.9098 -105.3031 262° West 403 464 16,600 2,167 Climbing FlightAware ADS-B (KEIK)
Wed 02:50:57 PM 39.9003 -105.3838 261° West 409 471 17,700 1,840 Climbing FlightAware ADS-B (KEIK)
Wed 02:51:39 PM 39.8881 -105.4894 261° West 424 488 18,900 1,808 Climbing FlightAware ADS-B (KEIK)
Wed 02:52:10 PM 39.8801 -105.5599 262° West 430 495 19,900 1,612 Climbing FlightAware ADS-B (KEIK)
Wed 02:52:46 PM 39.8675 -105.6630 261° West 448 516 20,700 1,583 Climbing FlightAware ADS-B (KEIK)
Wed 02:53:22 PM 39.8572 -105.7461 261° West 451 519 21,800 1,791 Climbing FlightAware ADS-B (KEIK)
Wed 02:53:53 PM 39.8496 -105.8395 264° West 454 522 22,700 1,644 Climbing FlightAware ADS-B (KEIK)
Wed 02:54:35 PM 39.8436 -105.9182 264° West 463 533 23,800 1,469 Climbing FlightAware ADS-B (KEIK)
Wed 02:55:31 PM 39.8270 -106.1100 264° West 473 544 25,100 1,371 Climbing FlightAware ADS-B
Wed 02:55:45 PM 39.8241 -106.1432 264° West 475 547 25,400 1,371 Climbing FlightAware ADS-B (KEIK)
Wed 02:56:41 PM 39.8090 -106.3110 263° West 484 557 26,700 1,378 Climbing FlightAware ADS-B
Wed 02:56:59 PM 39.8047 -106.3565 263° West 485 558 27,100 1,304 Climbing FlightAware ADS-B (KEIK)
Wed 02:57:50 PM 39.7910 -106.5120 264° West 492 566 28,200 1,256 Climbing FlightAware ADS-B
Wed 02:58:25 PM 39.7850 -106.6160 266° West 495 570 28,900 1,014 Climbing FlightAware ADS-B
Wed 02:59:01 PM 39.7800 -106.7240 267° West 502 578 29,400 955 Climbing FlightAware ADS-B
Wed 02:59:09 PM 39.7794 -106.7386 267° West 504 580 29,600 1,038 Climbing FlightAware ADS-B (KEIK)
Wed 02:59:53 PM 39.7742 -106.8508 267° West 510 587 30,300 1,188 Climbing FlightAware ADS-B (KEIK)
Wed 03:00:45 PM 39.7650 -107.0390 266° West 507 583 31,500 1,341 Climbing FlightAware ADS-B
Wed 03:01:18 PM 39.7610 -107.1200 266° West 503 579 32,200 1,500 Climbing FlightAware ADS-B
Wed 03:01:29 PM 39.7590 -107.1698 267° West 502 578 32,600 1,429 Climbing FlightAware ADS-B
Wed 03:02:00 PM 39.7543 -107.2670 266° West 501 577 33,200 1,082 Climbing FlightAware ADS-B
Wed 03:02:30 PM 39.7500 -107.3550 266° West 499 574 33,700 1,200 Climbing FlightAware ADS-B
Wed 03:03:10 PM 39.7437 -107.4755 266° West 494 568 34,600 1,350 Climbing FlightAware ADS-B
Wed 03:03:50 PM 39.7375 -107.5939 266° West 484 557 35,500 1,063 Climbing FlightAware ADS-B
Wed 03:04:29 PM 39.7316 -107.7046 266° West 481 554 36,000 405 Climbing FlightAware ADS-B
Wed 03:05:04 PM 39.7262 -107.8043 266° West 482 555 36,000  Level FlightAware ADS-B
Wed 03:05:38 PM 39.7213 -107.8937 266° West 483 556 36,000  Level FlightAware ADS-B
Wed 03:06:08 PM 39.7160 -107.9907 266° West 482 555 36,000  Level FlightAware ADS-B
Wed 03:06:45 PM 39.7101 -108.0957 266° West 479 551 36,000  Level FlightAware ADS-B
Wed 03:07:15 PM 39.7051 -108.1827 266° West 478 550 36,000  Level FlightAware ADS-B
Wed 03:07:46 PM 39.7000 -108.2711 266° West 476 548 36,000  Level FlightAware ADS-B
Wed 03:08:17 PM 39.6950 -108.3553 266° West 475 547 36,000  Level FlightAware ADS-B
Wed 03:08:49 PM 39.6898 -108.4406 266° West 473 544 36,000  Level FlightAware ADS-B
Wed 03:09:04 PM 39.6867 -108.4937 266° West 471 542 36,000  Level FlightAware ADS-B (KGUC)
Wed 03:09:40 PM 39.6902 -108.5935 273° West 460 529 36,000  Level FlightAware ADS-B
Wed 03:10:10 PM 39.6961 -108.6682 276° West 462 532 36,000  Level FlightAware ADS-B
Wed 03:10:40 PM 39.7027 -108.7509 276° West 463 533 36,000  Level FlightAware ADS-B
Wed 03:10:48 PM 39.6892 -108.5809 96° East 463 533 36,000  Level FlightAware ADS-B (KGUC)
Wed 03:11:22 PM 39.7123 -108.8682 276° West 463 533 36,000  Level FlightAware ADS-B
Wed 03:11:26 PM 39.7128 -108.8749 276° West 464 534 36,000  Level FlightAware ADS-B (KGUC)
Wed 03:11:43 PM 39.7131 -108.9335 270° West 464 534 36,000  Level FlightAware ADS-B (KGUC)
Wed 03:12:22 PM 39.7110 -109.0194 268° West 471 542 36,000  Level FlightAware ADS-B
Wed 03:13:02 PM 39.7014 -109.1528 265° West 473 544 36,000  Level FlightAware ADS-B
Wed 03:13:35 PM 39.6949 -109.2288 264° West 472 543 36,000  Level FlightAware ADS-B
Wed 03:14:08 PM 39.6855 -109.3384 264° West 472 543 36,000  Level FlightAware ADS-B
Wed 03:14:48 PM 39.6759 -109.4530 264° West 471 542 36,000  Level FlightAware ADS-B
Wed 03:15:22 PM 39.6683 -109.5465 264° West 470 541 36,000  Level FlightAware ADS-B
Wed 03:15:52 PM 39.6616 -109.6281 264° West 470 541 36,000  Level FlightAware ADS-B
Wed 03:16:34 PM 39.6534 -109.7258 264° West 470 541 36,000  Level FlightAware ADS-B (KGUC)
Wed 03:17:10 PM 39.6435 -109.8423 264° West 472 543 36,000  Level FlightAware ADS-B
Wed 03:17:40 PM 39.6360 -109.9293 264° West 472 543 36,000  Level FlightAware ADS-B
Wed 03:18:14 PM 39.6272 -110.0302 264° West 472 543 36,000  Level FlightAware ADS-B
Wed 03:18:44 PM 39.6201 -110.1115 264° West 472 543 36,000  Level FlightAware ADS-B
Wed 03:19:16 PM 39.6119 -110.2034 263° West 471 542 36,000  Level FlightAware ADS-B
Wed 03:19:47 PM 39.6043 -110.2895 263° West 469 540 36,000  Level FlightAware ADS-B
Wed 03:20:18 PM 39.5969 -110.3713 263° West 467 537 36,000  Level FlightAware ADS-B
Wed 03:20:48 PM 39.5890 -110.4590 263° West 467 537 36,000  Level FlightAware ADS-B
Wed 03:21:19 PM 39.5816 -110.5394 263° West 467 537 36,000  Level FlightAware ADS-B
Wed 03:21:49 PM 39.5736 -110.6259 263° West 467 537 36,000  Level FlightAware ADS-B
Wed 03:22:20 PM 39.5658 -110.7107 263° West 465 535 36,000  Level FlightAware ADS-B
Wed 03:22:50 PM 39.5577 -110.7965 263° West 462 532 36,000  Level FlightAware ADS-B
Wed 03:23:23 PM 39.5499 -110.8788 263° West 462 532 36,000  Level FlightAware ADS-B
Wed 03:23:53 PM 39.5414 -110.9681 263° West 461 531 36,000  Level FlightAware ADS-B
Wed 03:24:23 PM 39.5340 -111.0451 263° West 460 529 36,000  Level FlightAware ADS-B
Wed 03:24:53 PM 39.5257 -111.1305 263° West 459 528 36,000  Level FlightAware ADS-B
Wed 03:25:00 PM 39.5238 -111.1510 263° West 459 528 36,000  Level FlightAware ADS-B
Wed 03:25:28 PM 39.5163 -111.2278 263° West 459 528 36,000  Level FlightAware ADS-B
Wed 03:25:32 PM 39.5153 -111.2380 263° West 460 529 36,000  Level FlightAware ADS-B
Wed 03:25:58 PM 39.5082 -111.3095 263° West 461 531 36,000  Level FlightAware ADS-B
Wed 03:26:02 PM 39.5072 -111.3200 263° West 461 531 36,000  Level FlightAware ADS-B
Wed 03:26:29 PM 39.4999 -111.3935 263° West 460 529 36,000  Level FlightAware ADS-B
Wed 03:26:32 PM 39.4990 -111.4030 263° West 460 529 36,000  Level FlightAware ADS-B
Wed 03:27:03 PM 39.4907 -111.4860 263° West 460 529 36,000  Level FlightAware ADS-B
Wed 03:27:33 PM 39.4823 -111.5690 263° West 460 529 36,000  Level FlightAware ADS-B
Wed 03:27:52 PM 39.4776 -111.6161 263° West 461 531 36,000  Level FlightAware ADS-B
Wed 03:28:04 PM 39.4738 -111.6530 263° West 461 531 36,000  Level FlightAware ADS-B
Wed 03:28:35 PM 39.4651 -111.7380 262° West 463 533 36,000  Level FlightAware ADS-B
Wed 03:29:05 PM 39.4567 -111.8200 262° West 465 535 36,000  Level FlightAware ADS-B
Wed 03:29:37 PM 39.4476 -111.9080 262° West 465 535 36,000  Level FlightAware ADS-B
Wed 03:30:08 PM 39.4388 -111.9920 262° West 464 534 36,000  Level FlightAware ADS-B
Wed 03:30:38 PM 39.4299 -112.0770 262° West 464 534 36,000  Level FlightAware ADS-B
Wed 03:31:08 PM 39.4212 -112.1590 262° West 464 534 36,000  Level FlightAware ADS-B
Wed 03:31:21 PM 39.4181 -112.1888 262° West 465 535 36,000  Level FlightAware ADS-B
Wed 03:31:38 PM 39.4124 -112.2420 262° West 465 535 36,000  Level FlightAware ADS-B
Wed 03:31:55 PM 39.4083 -112.2801 262° West 465 535 36,000  Level FlightAware ADS-B
Wed 03:32:09 PM 39.4034 -112.3260 262° West 464 534 36,000  Level FlightAware ADS-B
Wed 03:32:40 PM 39.3944 -112.4100 262° West 463 533 36,000  Level FlightAware ADS-B
Wed 03:33:10 PM 39.3853 -112.4930 262° West 465 535 36,000  Level FlightAware ADS-B
Wed 03:33:26 PM 39.3807 -112.5351 262° West 466 536 36,000  Level FlightAware ADS-B
Wed 03:33:41 PM 39.3759 -112.5780 262° West 466 536 36,000  Level FlightAware ADS-B
Wed 03:34:08 PM 39.3679 -112.6504 262° West 465 535 36,000  Level FlightAware ADS-B
Wed 03:34:16 PM 39.3654 -112.6730 262° West 465 535 36,000  Level FlightAware ADS-B
Wed 03:34:46 PM 39.3563 -112.7550 262° West 465 535 36,000  Level FlightAware ADS-B
Wed 03:35:10 PM 39.3502 -112.8092 262° West 464 534 36,000  Level FlightAware ADS-B
Wed 03:35:16 PM 39.3470 -112.8380 262° West 464 534 36,000  Level FlightAware ADS-B
Wed 03:35:46 PM 39.3377 -112.9210 262° West 463 533 36,000  Level FlightAware ADS-B
Wed 03:36:16 PM 39.3284 -113.0030 262° West 463 533 36,000  Level FlightAware ADS-B
Wed 03:37:12 PM 39.3116 -113.1505 262° West 463 533 36,000  Level FlightAware ADS-B
Wed 03:37:19 PM 39.3089 -113.1730 261° West 463 533 36,000  Level FlightAware ADS-B
Wed 03:38:02 PM 39.2950 -113.2880 261° West 462 532 36,000  Level FlightAware ADS-B
Wed 03:38:34 PM 39.2835 -113.3743 260° West 464 534 36,000  Level FlightAware ADS-B
Wed 03:39:17 PM 39.2670 -113.4910 260° West 461 531 36,000  Level FlightAware ADS-B
Wed 03:39:47 PM 39.2560 -113.5750 260° West 460 529 36,000  Level FlightAware ADS-B
Wed 03:40:32 PM 39.2390 -113.6860 259° West 460 529 36,000  Level FlightAware ADS-B
Wed 03:41:07 PM 39.2260 -113.7910 261° West 460 529 36,000  Level FlightAware ADS-B
Wed 03:41:56 PM 39.2090 -113.9080 259° West 460 529 36,000  Level FlightAware ADS-B
Wed 03:42:33 PM 39.1960 -113.9930 259° West 460 529 36,000  Level FlightAware ADS-B
Wed 03:43:09 PM 39.1830 -114.0760 259° West 460 529 36,000  Level FlightAware ADS-B
Wed 03:43:48 PM 39.1700 -114.1650 259° West 460 529 36,000  Level FlightAware ADS-B
Wed 03:44:22 PM 39.1580 -114.2430 259° West 460 529 36,000  Level FlightAware ADS-B
Wed 03:44:59 PM 39.1450 -114.3280 259° West 460 529 36,000  Level FlightAware ADS-B
Wed 03:45:35 PM 39.1330 -114.4100 259° West 460 529 36,000  Level FlightAware ADS-B
Wed 03:46:12 PM 39.1200 -114.4950 259° West 460 529 36,000  Level FlightAware ADS-B
Wed 03:46:58 PM 39.1040 -114.6000 259° West 460 529 36,000  Level FlightAware ADS-B
Wed 03:47:35 PM 39.0920 -114.6850 260° West 460 529 36,000  Level FlightAware ADS-B
Wed 03:48:12 PM 39.0790 -114.7690 259° West 460 529 36,000  Level FlightAware ADS-B
Wed 03:48:48 PM 39.0660 -114.8520 259° West 460 529 36,000  Level FlightAware ADS-B
Wed 03:49:24 PM 39.0540 -114.9340 259° West 460 529 36,000  Level FlightAware ADS-B
Wed 03:50:00 PM 39.0410 -115.0160 258° West 460 529 36,000  Level FlightAware ADS-B
Wed 03:50:36 PM 39.0290 -115.0980 259° West 460 529 36,000  Level FlightAware ADS-B
Wed 03:51:12 PM 39.0170 -115.1810 259° West 460 529 36,000 1,690 Level FlightAware ADS-B
Wed 03:51:47 PM 38.9783 -115.4619 259° West 446 513 38,000 1,237 Climbing Salt Lake Center
Wed 03:52:49 PM 38.9539 -115.6150 258° West 440 506 38,000  Level Salt Lake Center
Wed 03:53:51 PM 38.9294 -115.7703 259° West 443 510 38,000  Level Salt Lake Center
Wed 03:54:53 PM 38.9000 -115.9575 259° West 447 514 38,000  Level Salt Lake Center
Wed 04:00:14 PM 38.7670 -116.7800 259° West 38,000  Level FlightAware ADS-B
Wed 04:00:54 PM 38.7490 -116.8860 258° West 411 473 38,000  Level FlightAware ADS-B
Wed 04:01:34 PM 38.7320 -116.9910 258° West 442 509 38,000  Level FlightAware ADS-B
Wed 04:02:24 PM 38.7110 -117.1110 257° West 443 510 38,000  Level FlightAware ADS-B
Wed 04:03:01 PM 38.6980 -117.1920 258° West 443 510 38,000  Level FlightAware ADS-B
Wed 04:03:38 PM 38.6850 -117.2720 258° West 443 510 38,000  Level FlightAware ADS-B
Wed 04:04:34 PM 38.6540 -117.4470 257° West 482 555 38,000  Level FlightAware ADS-B
Wed 04:05:09 PM 38.6390 -117.5360 258° West 444 511 38,000  Level FlightAware ADS-B
Wed 04:05:52 PM 38.6260 -117.6360 261° West 445 512 38,000  Level FlightAware ADS-B
Wed 04:06:26 PM 38.6160 -117.7110 260° West 445 512 38,000  Level FlightAware ADS-B
Wed 04:07:02 PM 38.6060 -117.7910 261° West 445 512 38,000  Level FlightAware ADS-B
Wed 04:07:38 PM 38.5970 -117.8700 262° West 445 512 38,000  Level FlightAware ADS-B
Wed 04:08:12 PM 38.6030 -118.0210 273° West 442 509 38,000  Level FlightAware ADS-B
Wed 04:08:46 PM 38.5980 -118.1110 266° West 441 507 38,000  Level FlightAware ADS-B
Wed 04:09:19 PM 38.5920 -118.1940 265° West 442 509 38,000  Level FlightAware ADS-B
Wed 04:09:56 PM 38.5860 -118.2920 266° West 444 511 38,000  Level FlightAware ADS-B
Wed 04:10:33 PM 38.5790 -118.3880 265° West 444 511 38,000  Level FlightAware ADS-B
Wed 04:11:03 PM 38.5740 -118.4650 265° West 442 509 38,000  Level FlightAware ADS-B
Wed 04:11:42 PM 38.5670 -118.5680 265° West 440 506 38,000  Level FlightAware ADS-B
Wed 04:12:14 PM 38.5610 -118.6520 265° West 440 506 38,000  Level FlightAware ADS-B
Wed 04:12:58 PM 38.5530 -118.7600 265° West 441 507 38,000  Level FlightAware ADS-B
Wed 04:13:19 PM 38.5515 -118.7866 266° West 441 507 38,000  Level FlightAware ADS-B
Wed 04:14:01 PM 38.5414 -118.9276 265° West 443 510 38,000  Level FlightAware ADS-B
Wed 04:14:43 PM 38.5330 -119.0370 264° West 443 510 38,000  Level FlightAware ADS-B
Wed 04:15:13 PM 38.5276 -119.1165 265° West 445 512 38,000  Level FlightAware ADS-B
Wed 04:15:43 PM 38.5222 -119.1901 265° West 445 512 38,000  Level FlightAware ADS-B
Wed 04:16:25 PM 38.5138 -119.3013 265° West 445 512 38,000  Level FlightAware ADS-B
Wed 04:16:55 PM 38.5080 -119.3783 265° West 444 511 38,000  Level FlightAware ADS-B
Wed 04:17:40 PM 38.4987 -119.4995 264° West 444 511 38,000  Level FlightAware ADS-B
Wed 04:18:10 PM 38.4930 -119.5730 264° West 445 512 38,000  Level FlightAware ADS-B
Wed 04:18:46 PM 38.4850 -119.6700 264° West 446 513 38,000  Level FlightAware ADS-B
Wed 04:18:53 PM 38.4839 -119.6885 266° West 446 513 38,000  Level FlightAware ADS-B
Wed 04:20:00 PM 38.4700 -119.8630 264° West 447 514 38,000  Level FlightAware ADS-B
Wed 04:20:06 PM 38.4685 -119.8816 264° West 447 514 38,000  Level FlightAware ADS-B
Wed 04:20:49 PM 38.4594 -119.9939 264° West 445 512 38,000  Level FlightAware ADS-B
Wed 04:21:42 PM 38.4490 -120.1210 264° West 447 514 38,000  Level FlightAware ADS-B
Wed 04:22:16 PM 38.4410 -120.2180 264° West 446 513 38,000  Level FlightAware ADS-B
Wed 04:22:36 PM 38.4391 -120.2406 264° West 445 512 38,000  Level FlightAware ADS-B
Wed 04:23:28 PM 38.4250 -120.4050 264° West 445 512 38,000  Level FlightAware ADS-B
Wed 04:24:04 PM 38.4170 -120.4990 264° West 442 509 38,000  Level FlightAware ADS-B
Wed 04:24:41 PM 38.4089 -120.5950 264° West 440 506 38,000  Level FlightAware ADS-B
Wed 04:25:09 PM 38.4028 -120.6650 264° West 440 506 38,000  Level FlightAware ADS-B
Wed 04:25:12 PM 38.4020 -120.6750 264° West 440 506 38,000  Level FlightAware ADS-B
Wed 04:25:42 PM 38.3951 -120.7530 264° West 440 506 38,000  Level FlightAware ADS-B
Wed 04:25:59 PM 38.3941 -120.7647 263° West 440 506 38,000  Level FlightAware ADS-B
Wed 04:26:13 PM 38.3879 -120.8330 263° West 440 506 38,000  Level FlightAware ADS-B
Wed 04:26:57 PM 38.3780 -120.9440 264° West 439 505 38,000  Level FlightAware ADS-B
Wed 04:27:13 PM 38.3741 -120.9880 264° West 440 506 38,000  Level FlightAware ADS-B
Wed 04:28:07 PM 38.3620 -121.1250 264° West 438 504 38,000  Level FlightAware ADS-B
Wed 04:28:43 PM 38.3530 -121.2170 263° West 438 504 38,000  Level FlightAware ADS-B
Wed 04:29:19 PM 38.3450 -121.3080 264° West 440 506 38,000  Level FlightAware ADS-B
Wed 04:29:51 PM 38.3370 -121.3920 263° West 440 506 38,000  Level FlightAware ADS-B
Wed 04:30:29 PM 38.3279 -121.4880 263° West 440 506 38,000  Level FlightAware ADS-B
Wed 04:31:03 PM 38.3190 -121.5770 263° West 441 507 38,000  Level FlightAware ADS-B
Wed 04:31:13 PM 38.3169 -121.6030 264° West 441 507 38,000  Level FlightAware ADS-B
Wed 04:31:45 PM 38.3091 -121.6850 263° West 441 507 38,000  Level FlightAware ADS-B
Wed 04:32:18 PM 38.3009 -121.7690 263° West 442 509 38,000  Level FlightAware ADS-B
Wed 04:32:48 PM 38.2933 -121.8480 263° West 443 510 38,000  Level FlightAware ADS-B
Wed 04:33:21 PM 38.2850 -121.9330 263° West 444 511 38,000  Level FlightAware ADS-B
Wed 04:33:56 PM 38.2761 -122.0220 263° West 444 511 38,000  Level FlightAware ADS-B
Wed 04:34:35 PM 38.2658 -122.1240 263° West 445 512 38,000  Level FlightAware ADS-B
Wed 04:35:10 PM 38.2569 -122.2140 263° West 448 516 38,000  Level FlightAware ADS-B
Wed 04:35:43 PM 38.2490 -122.2940 263° West 449 517 38,000  Level FlightAware ADS-B
Wed 04:36:15 PM 38.2400 -122.3800 262° West 449 517 38,000  Level FlightAware ADS-B
Wed 04:36:53 PM 38.2310 -122.4720 263° West 449 517 38,000  Level FlightAware ADS-B
Wed 04:37:28 PM 38.2210 -122.5660 262° West 448 516 38,000  Level FlightAware ADS-B
Wed 04:38:03 PM 38.2120 -122.6600 263° West 446 513 38,000  Level FlightAware ADS-B
Wed 04:38:38 PM 38.2070 -122.7550 266° West 446 513 38,000  Level FlightAware ADS-B
Wed 04:39:13 PM 38.2020 -122.8370 266° West 445 512 38,000  Level FlightAware ADS-B
Wed 04:39:51 PM 38.1940 -122.9480 265° West 445 512 38,000  Level FlightAware ADS-B
Wed 04:40:23 PM 38.1890 -123.0300 266° West 445 512 38,000  Level FlightAware ADS-B
Wed 04:41:01 PM 38.1820 -123.1250 265° West 443 510 38,000  Level FlightAware ADS-B
Wed 04:41:37 PM 38.1750 -123.2200 265° West 443 510 38,000  Level FlightAware ADS-B
Wed 04:42:12 PM 38.1690 -123.3110 265° West 442 509 38,000  Level FlightAware ADS-B
Wed 04:42:52 PM 38.1620 -123.4110 265° West 440 506 38,000  Level FlightAware ADS-B
Wed 04:43:32 PM 38.1540 -123.5200 265° West 438 504 38,000  Level FlightAware ADS-B
Wed 04:44:07 PM 38.1480 -123.5940 264° West 438 504 38,000  Level FlightAware ADS-B
Wed 04:44:45 PM 38.1410 -123.7020 265° West 438 504 38,000  Level FlightAware ADS-B
Wed 04:45:18 PM 38.1340 -123.7850 264° West 438 504 38,000  Level FlightAware ADS-B
Wed 04:46:04 PM 38.1270 -123.8940 265° West 438 504 38,000  Level FlightAware ADS-B
Wed 04:46:41 PM 38.1210 -123.9750 265° West 438 504 38,000  Level FlightAware ADS-B
Wed 04:47:15 PM 38.1160 -124.0490 265° West 438 504 38,000  Level FlightAware ADS-B
Wed 04:47:51 PM 38.1100 -124.1270 264° West 438 504 38,000  Level FlightAware ADS-B
Wed 04:48:28 PM 38.1050 -124.2080 266° West 438 504 38,000  Level FlightAware ADS-B
Wed 04:49:04 PM 38.0990 -124.2860 264° West 438 504 38,000  Level FlightAware ADS-B
Wed 04:49:42 PM 38.0940 -124.3690 266° West 438 504 38,000  Level FlightAware ADS-B
Wed 04:50:29 PM 38.0870 -124.4720 265° West 438 504 38,000  Level FlightAware ADS-B
Wed 04:51:05 PM 38.0810 -124.5500 264° West 438 504 38,000  Level FlightAware ADS-B
Wed 04:51:42 PM 38.0760 -124.6310 266° West 438 504 38,000  Level FlightAware ADS-B
Wed 04:52:16 PM 38.0710 -124.7050 265° West 438 504 38,000  Level FlightAware ADS-B
Wed 04:52:54 PM 38.0650 -124.7880 265° West 438 504 38,000  Level FlightAware ADS-B
Wed 04:53:29 PM 38.0600 -124.8640 265° West 438 504 38,000  Level FlightAware ADS-B
Wed 04:54:05 PM 38.0540 -124.9430 265° West 438 504 38,000  Level FlightAware ADS-B
Wed 04:54:42 PM 38.0490 -125.0230 265° West 438 504 38,000  Level FlightAware ADS-B
Wed 04:55:16 PM 38.0440 -125.0970 265° West 438 504 38,000  Level FlightAware ADS-B
Wed 04:55:53 PM 38.0047 -125.3758 265° West 439 505 38,000 -61 Level Oakland Center
Wed 04:56:54 PM 37.9914 -125.5283 264° West 437 503 37,900 -49 Descending Oakland Center
Wed 04:57:56 PM 37.9747 -125.7117 263° West 438 504 37,900 49 Level Oakland Center
Wed 04:58:57 PM 37.9600 -125.8658 263° West 439 505 38,000  Climbing Oakland Center
Wed 04:59:58 PM 37.9461 -126.0189 263° West 440 506 37,900 -49 Descending Oakland Center
Wed 05:00:59 PM 37.9308 -126.1722 263° West 440 506 37,900  Level Oakland Center
Wed 05:02:01 PM 37.9169 -126.3194 263° West 439 505 37,900  Level Oakland Center
Wed 05:03:02 PM 37.9031 -126.4747 264° West 442 509 37,900  Level Oakland Center
Wed 05:04:03 PM 37.8864 -126.6297 262° West 444 511 37,900  Level Oakland Center
Wed 05:05:05 PM 37.8703 -126.7844 263° West 444 511 37,900 49 Level Oakland Center
Wed 05:06:06 PM 37.8556 -126.9400 263° West 445 512 38,000 80 Climbing Oakland Center
Wed 05:06:20 PM 37.8500 -127.0000 271° West 446 513 38,000  Level Oakland Oceanic (ODAPS)
Wed 05:07:47 PM 37.8500 -127.2333 270° West 449 517 38,000  Level Oakland Oceanic (ODAPS)
Wed 05:13:00 PM 37.8527 -128.1054 270° West 446 513 38,000  Level FlightAware Transoceanic
Wed 05:13:42 PM 37.8500 -128.1667 270° West 449 517 38,000  Level Oakland Oceanic (ODAPS)
Wed 05:14:00 PM 37.8515 -128.2099 270° West 449 517 38,000  Level FlightAware Transoceanic
Wed 05:15:00 PM 37.8510 -128.3727 270° West 449 517 38,000  Level FlightAware Transoceanic
Wed 05:16:00 PM 37.8502 -128.5354 270° West 449 517 38,000  Level FlightAware Transoceanic
Wed 05:17:00 PM 37.8492 -128.6982 270° West 449 517 38,000  Level FlightAware Transoceanic
Wed 05:18:00 PM 37.8480 -128.8609 269° West 449 517 38,000  Level FlightAware Transoceanic
Wed 05:19:00 PM 37.8466 -129.0237 269° West 449 517 38,000  Level FlightAware Transoceanic
Wed 05:20:00 PM 37.8444 -129.1668 269° West 449 517 38,000  Level FlightAware Transoceanic
Wed 05:21:00 PM 37.8427 -129.3334 269° West 449 517 38,000  Level FlightAware Transoceanic
Wed 05:22:00 PM 37.8407 -129.5001 269° West 449 517 38,000  Level FlightAware Transoceanic
Wed 05:23:00 PM 37.8385 -129.6667 269° West 449 517 38,000  Level FlightAware Transoceanic
Wed 05:24:00 PM 37.8360 -129.8334 269° West 449 517 38,000  Level FlightAware Transoceanic
Wed 05:25:00 PM 37.8333 -130.0000 295° West 449 517 38,000  Level FlightAware Transoceanic
Wed 05:25:21 PM 37.8333 -130.0000 295° West 462 532 38,000  Level Oakland Oceanic (ODAPS)
Wed 05:26:00 PM 37.8875 -130.1447 295° West 449 517 38,000  Level FlightAware Transoceanic
Wed 05:27:00 PM 37.9415 -130.2896 295° West 449 517 38,000  Level FlightAware Transoceanic
Wed 05:27:38 PM 37.9500 -130.3333 295° West 462 532 38,000  Level Oakland Oceanic (ODAPS)
Wed 05:28:00 PM 37.9953 -130.4346 295° West 449 517 38,000  Level FlightAware Transoceanic
Wed 05:29:00 PM 38.0489 -130.5799 295° West 449 517 38,000  Level FlightAware Transoceanic
Wed 05:30:00 PM 38.1024 -130.7255 295° West 449 517 38,000  Level FlightAware Transoceanic
Wed 05:31:00 PM 38.1605 -130.8846 295° West 462 532 38,000  Level FlightAware Transoceanic
Wed 05:32:00 PM 38.2144 -131.0329 295° West 462 532 38,000  Level FlightAware Transoceanic
Wed 05:33:00 PM 38.2681 -131.1813 295° West 462 532 38,000  Level FlightAware Transoceanic
Wed 05:34:00 PM 38.3274 -131.3652 295° West 462 532 38,000  Level FlightAware Transoceanic
Wed 05:35:00 PM 38.3806 -131.5134 295° West 462 532 38,000  Level FlightAware Transoceanic
Wed 05:36:00 PM 38.4336 -131.6619 294° West 462 532 38,000  Level FlightAware Transoceanic
Wed 05:37:00 PM 38.4864 -131.8106 294° West 462 532 38,000  Level FlightAware Transoceanic
Wed 05:38:00 PM 38.5390 -131.9596 294° West 462 532 38,000  Level FlightAware Transoceanic
Wed 05:39:00 PM 38.5915 -132.1087 294° West 462 532 38,000  Level FlightAware Transoceanic
Wed 05:40:00 PM 38.6437 -132.2581 294° West 462 532 38,000  Level FlightAware Transoceanic
Wed 05:41:00 PM 38.6958 -132.4077 294° West 462 532 38,000  Level FlightAware Transoceanic
Wed 05:41:30 PM 38.7000 -132.3833 294° West 467 537 38,000  Level Oakland Oceanic (ODAPS)
Wed 05:42:00 PM 38.7476 -132.5575 294° West 462 532 38,000  Level FlightAware Transoceanic
Wed 05:43:00 PM 38.7993 -132.7075 294° West 462 532 38,000  Level FlightAware Transoceanic
Wed 05:44:00 PM 38.8507 -132.8577 294° West 462 532 38,000  Level FlightAware Transoceanic
Wed 05:45:00 PM 38.9020 -133.0082 294° West 462 532 38,000  Level FlightAware Transoceanic
Wed 05:46:00 PM 38.9531 -133.1588 294° West 462 532 38,000  Level FlightAware Transoceanic
Wed 05:47:00 PM 39.0079 -133.2883 293° West 467 537 38,000  Level FlightAware Transoceanic
Wed 05:48:00 PM 39.0586 -133.4399 293° West 467 537 38,000  Level FlightAware Transoceanic
Wed 05:49:00 PM 39.1090 -133.5917 293° West 467 537 38,000  Level FlightAware Transoceanic
Wed 05:50:00 PM 39.1592 -133.7437 293° West 467 537 38,000  Level FlightAware Transoceanic
Wed 05:51:00 PM 39.2093 -133.8960 293° West 467 537 38,000  Level FlightAware Transoceanic
Wed 05:52:00 PM 39.2591 -134.0484 293° West 467 537 38,000  Level FlightAware Transoceanic
Wed 05:53:00 PM 39.3088 -134.2011 293° West 467 537 38,000  Level FlightAware Transoceanic
Wed 05:54:00 PM 39.3582 -134.3540 293° West 467 537 38,000  Level FlightAware Transoceanic
Wed 05:55:00 PM 39.4075 -134.5071 293° West 467 537 38,000  Level FlightAware Transoceanic
Wed 05:55:23 PM 39.4000 -134.5000 293° West 472 543 38,000  Level Oakland Oceanic (ODAPS)
Wed 05:56:00 PM 39.4565 -134.6604 292° West 467 537 38,000  Level FlightAware Transoceanic
Wed 05:57:00 PM 39.5053 -134.8140 292° West 467 537 38,000  Level FlightAware Transoceanic
Wed 05:58:00 PM 39.5540 -134.9677 292° West 467 537 38,000  Level FlightAware Transoceanic
Wed 05:59:00 PM 39.6024 -135.1217 292° West 467 537 38,000  Level FlightAware Transoceanic
Wed 06:00:00 PM 39.6507 -135.2759 292° West 467 537 38,000  Level FlightAware Transoceanic
Wed 06:01:00 PM 39.6926 -135.4243 292° West 472 543 38,000  Level FlightAware Transoceanic
Wed 06:02:00 PM 39.7406 -135.5791 292° West 472 543 38,000  Level FlightAware Transoceanic
Wed 06:03:00 PM 39.7884 -135.7341 292° West 472 543 38,000  Level FlightAware Transoceanic
Wed 06:04:00 PM 39.8361 -135.8894 292° West 472 543 38,000  Level FlightAware Transoceanic
Wed 06:05:00 PM 39.8835 -136.0448 292° West 472 543 38,000  Level FlightAware Transoceanic
Wed 06:06:00 PM 39.9307 -136.2005 292° West 472 543 38,000  Level FlightAware Transoceanic
Wed 06:07:00 PM 39.9777 -136.3564 291° West 472 543 38,000  Level FlightAware Transoceanic
Wed 06:08:00 PM 40.0245 -136.5125 291° West 472 543 38,000  Level FlightAware Transoceanic
Wed 06:09:00 PM 40.0711 -136.6688 291° West 472 543 38,000 800 Level FlightAware Transoceanic
Wed 06:09:15 PM 40.0833 -136.6833 291° West 465 535 39,000  Climbing Oakland Oceanic (ODAPS)
Wed 06:10:00 PM 40.1175 -136.8253 291° West 472 543 38,000 -571 Descending FlightAware Transoceanic
Wed 06:11:00 PM 40.1637 -136.9820 291° West 472 543 38,000  Level FlightAware Transoceanic
Wed 06:12:00 PM 40.2096 -137.1390 291° West 472 543 38,000  Level FlightAware Transoceanic
Wed 06:13:00 PM 40.2554 -137.2961 291° West 472 543 38,000  Level FlightAware Transoceanic
Wed 06:14:00 PM 40.3009 -137.4535 291° West 472 543 38,000 500 Level FlightAware Transoceanic
Wed 06:15:00 PM 40.3549 -137.6217 290° West 465 535 39,000 500 Climbing FlightAware Transoceanic
Wed 06:16:00 PM 40.3994 -137.7788 290° West 465 535 39,000  Level FlightAware Transoceanic
Wed 06:17:00 PM 40.4437 -137.9361 290° West 465 535 39,000  Level FlightAware Transoceanic
Wed 06:18:00 PM 40.4878 -138.0936 290° West 465 535 39,000  Level FlightAware Transoceanic
Wed 06:19:00 PM 40.5317 -138.2514 290° West 465 535 39,000  Level FlightAware Transoceanic
Wed 06:20:00 PM 40.5753 -138.4093 290° West 465 535 39,000  Level FlightAware Transoceanic
Wed 06:21:00 PM 40.6188 -138.5675 290° West 465 535 39,000  Level FlightAware Transoceanic
Wed 06:22:00 PM 40.6620 -138.7258 290° West 465 535 39,000  Level FlightAware Transoceanic
Wed 06:23:00 PM 40.7050 -138.8844 290° West 465 535 39,000  Level FlightAware Transoceanic
Wed 06:23:06 PM 40.7000 -138.8833 290° West 459 528 39,000  Level Oakland Oceanic (ODAPS)
Wed 06:24:00 PM 40.7478 -139.0432 290° West 465 535 39,000  Level FlightAware Transoceanic
Wed 06:25:00 PM 40.7904 -139.2021 289° West 465 535 39,000  Level FlightAware Transoceanic
Wed 06:26:00 PM 40.8327 -139.3613 289° West 465 535 39,000  Level FlightAware Transoceanic
Wed 06:27:00 PM 40.8749 -139.5207 289° West 465 535 39,000  Level FlightAware Transoceanic
Wed 06:28:00 PM 40.9168 -139.6802 289° West 465 535 39,000  Level FlightAware Transoceanic
Wed 06:29:00 PM 40.9578 -139.8399 289° West 459 528 39,000  Level FlightAware Transoceanic
Wed 06:30:00 PM 41.0000 -140.0000 281° West 459 528 39,000  Level FlightAware Transoceanic
Wed 06:30:10 PM 41.0000 -140.0000 281° West 460 529 39,000  Level Oakland Oceanic (ODAPS)
Wed 06:31:00 PM 41.0241 -140.1666 281° West 459 528 39,000  Level FlightAware Transoceanic
Wed 06:32:00 PM 41.0479 -140.3333 281° West 459 528 39,000  Level FlightAware Transoceanic
Wed 06:33:00 PM 41.0715 -140.5001 281° West 459 528 39,000  Level FlightAware Transoceanic
Wed 06:34:00 PM 41.0949 -140.6671 280° West 459 528 39,000  Level FlightAware Transoceanic
Wed 06:35:00 PM 41.1180 -140.8342 280° West 459 528 39,000  Level FlightAware Transoceanic
Wed 06:36:00 PM 41.1409 -141.0013 280° West 460 529 39,000  Level FlightAware Transoceanic
Wed 06:36:58 PM 41.1667 -141.1333 280° West 454 522 39,000  Level Oakland Oceanic (ODAPS)
Wed 06:37:00 PM 41.1636 -141.1687 280° West 460 529 39,000  Level FlightAware Transoceanic
Wed 06:38:00 PM 41.1860 -141.3361 280° West 460 529 39,000  Level FlightAware Transoceanic
Wed 06:39:00 PM 41.2081 -141.5036 280° West 460 529 39,000  Level FlightAware Transoceanic
Wed 06:40:00 PM 41.2301 -141.6712 280° West 460 529 39,000  Level FlightAware Transoceanic
Wed 06:41:00 PM 41.2517 -141.8390 280° West 460 529 39,000  Level FlightAware Transoceanic
Wed 06:42:00 PM 41.2732 -142.0069 280° West 460 529 39,000  Level FlightAware Transoceanic
Wed 06:43:00 PM 41.2950 -142.1245 279° West 454 522 39,000  Level FlightAware Transoceanic
Wed 06:44:00 PM 41.3155 -142.2901 279° West 454 522 39,000  Level FlightAware Transoceanic
Wed 06:45:00 PM 41.3358 -142.4557 279° West 454 522 39,000  Level FlightAware Transoceanic
Wed 06:46:00 PM 41.3559 -142.6215 279° West 454 522 39,000  Level FlightAware Transoceanic
Wed 06:47:00 PM 41.3758 -142.7874 279° West 454 522 39,000  Level FlightAware Transoceanic
Wed 06:48:00 PM 41.3954 -142.9534 279° West 454 522 39,000  Level FlightAware Transoceanic
Wed 06:49:00 PM 41.4147 -143.1194 279° West 454 522 39,000  Level FlightAware Transoceanic
Wed 06:50:00 PM 41.4339 -143.2856 279° West 454 522 39,000  Level FlightAware Transoceanic
Wed 06:50:50 PM 41.4500 -143.4500 279° West 457 526 39,000  Level Oakland Oceanic (ODAPS)
Wed 06:51:00 PM 41.4528 -143.4519 279° West 454 522 39,000  Level FlightAware Transoceanic
Wed 06:52:00 PM 41.4714 -143.6182 278° West 454 522 39,000  Level FlightAware Transoceanic
Wed 06:53:00 PM 41.4898 -143.7847 278° West 454 522 39,000  Level FlightAware Transoceanic
Wed 06:54:00 PM 41.5080 -143.9512 278° West 454 522 39,000  Level FlightAware Transoceanic
Wed 06:55:00 PM 41.5259 -144.1179 278° West 454 522 39,000  Level FlightAware Transoceanic
Wed 06:56:00 PM 41.5436 -144.2846 278° West 454 522 39,000  Level FlightAware Transoceanic
Wed 06:57:00 PM 41.5587 -144.4498 278° West 457 526 39,000  Level FlightAware Transoceanic
Wed 06:58:00 PM 41.5760 -144.6168 278° West 457 526 39,000  Level FlightAware Transoceanic
Wed 06:59:00 PM 41.5930 -144.7839 278° West 457 526 39,000  Level FlightAware Transoceanic
Wed 07:00:00 PM 41.6098 -144.9510 278° West 457 526 39,000  Level FlightAware Transoceanic
Wed 07:01:00 PM 41.6264 -145.1182 277° West 457 526 39,000  Level FlightAware Transoceanic
Wed 07:02:00 PM 41.6427 -145.2856 277° West 457 526 39,000  Level FlightAware Transoceanic
Wed 07:03:00 PM 41.6588 -145.4529 277° West 457 526 39,000  Level FlightAware Transoceanic
Wed 07:04:00 PM 41.6746 -145.6204 277° West 457 526 39,000  Level FlightAware Transoceanic
Wed 07:04:42 PM 41.6833 -145.7333 277° West 445 512 39,000  Level Oakland Oceanic (ODAPS)
Wed 07:05:00 PM 41.6902 -145.7880 277° West 457 526 39,000  Level FlightAware Transoceanic
Wed 07:06:00 PM 41.7055 -145.9556 277° West 457 526 39,000  Level FlightAware Transoceanic
Wed 07:07:00 PM 41.7206 -146.1233 277° West 457 526 39,000  Level FlightAware Transoceanic
Wed 07:08:00 PM 41.7355 -146.2911 277° West 457 526 39,000  Level FlightAware Transoceanic
Wed 07:09:00 PM 41.7501 -146.4590 277° West 457 526 39,000  Level FlightAware Transoceanic
Wed 07:10:00 PM 41.7644 -146.6270 276° West 457 526 39,000  Level FlightAware Transoceanic
Wed 07:11:00 PM 41.7737 -146.7533 276° West 445 512 39,000  Level FlightAware Transoceanic
Wed 07:12:00 PM 41.7879 -146.9236 276° West 445 512 39,000  Level FlightAware Transoceanic
Wed 07:13:00 PM 41.8018 -147.0939 276° West 445 512 39,000  Level FlightAware Transoceanic
Wed 07:14:00 PM 41.8155 -147.2644 276° West 445 512 39,000  Level FlightAware Transoceanic
Wed 07:15:00 PM 41.8289 -147.4348 276° West 445 512 39,000  Level FlightAware Transoceanic
Wed 07:16:00 PM 41.8421 -147.6054 276° West 445 512 39,000  Level FlightAware Transoceanic
Wed 07:17:00 PM 41.8550 -147.7760 276° West 445 512 39,000  Level FlightAware Transoceanic
Wed 07:18:00 PM 41.8677 -147.9467 276° West 445 512 39,000  Level FlightAware Transoceanic
Wed 07:18:34 PM 41.8667 -148.0167 276° West 453 521 39,000  Level Oakland Oceanic (ODAPS)
Wed 07:19:00 PM 41.8801 -148.1175 276° West 445 512 39,000  Level FlightAware Transoceanic
Wed 07:20:00 PM 41.8923 -148.2883 275° West 445 512 39,000  Level FlightAware Transoceanic
Wed 07:21:00 PM 41.9042 -148.4592 275° West 445 512 39,000  Level FlightAware Transoceanic
Wed 07:22:00 PM 41.9159 -148.6302 275° West 445 512 39,000  Level FlightAware Transoceanic
Wed 07:23:00 PM 41.9273 -148.8012 275° West 445 512 39,000  Level FlightAware Transoceanic
Wed 07:24:00 PM 41.9376 -149.0073 275° West 453 521 39,000  Level FlightAware Transoceanic
Wed 07:25:00 PM 41.9486 -149.1726 275° West 453 521 39,000  Level FlightAware Transoceanic
Wed 07:26:00 PM 41.9594 -149.3380 275° West 453 521 39,000  Level FlightAware Transoceanic
Wed 07:27:00 PM 41.9699 -149.5034 275° West 453 521 39,000  Level FlightAware Transoceanic
Wed 07:28:00 PM 41.9801 -149.6689 275° West 453 521 39,000  Level FlightAware Transoceanic
Wed 07:29:00 PM 41.9902 -149.8344 275° West 453 521 39,000  Level FlightAware Transoceanic
Wed 07:30:00 PM 42.0000 -150.0000 273° West 453 521 39,000 577 Level FlightAware Transoceanic
Wed 07:30:44 PM 42.0000 -150.0000 273° West 451 519 40,000  Climbing Oakland Oceanic (ODAPS)
Wed 07:31:00 PM 42.0072 -150.1691 273° West 453 521 39,000 -789 Descending FlightAware Transoceanic
Wed 07:32:00 PM 42.0142 -150.3383 273° West 453 521 39,000 698 Level FlightAware Transoceanic
Wed 07:32:26 PM 42.0167 -150.2833 273° West 451 519 40,000  Climbing Oakland Oceanic (ODAPS)
Wed 07:33:00 PM 42.0210 -150.5075 273° West 453 521 39,000 -638 Descending FlightAware Transoceanic
Wed 07:34:00 PM 42.0274 -150.6767 273° West 453 521 39,000  Level FlightAware Transoceanic
Wed 07:35:00 PM 42.0337 -150.8460 273° West 453 521 39,000  Level FlightAware Transoceanic
Wed 07:36:00 PM 42.0397 -151.0153 273° West 453 521 39,000 500 Level FlightAware Transoceanic
Wed 07:37:00 PM 42.0397 -151.0153 273° West 451 519 40,000 500 Climbing FlightAware Transoceanic
Wed 07:38:00 PM 42.0530 -151.2872 272° West 451 519 40,000  Level FlightAware Transoceanic
Wed 07:39:00 PM 42.0582 -151.4546 272° West 451 519 40,000  Level FlightAware Transoceanic
Wed 07:40:00 PM 42.0631 -151.6221 272° West 451 519 40,000  Level FlightAware Transoceanic
Wed 07:41:00 PM 42.0678 -151.7895 272° West 451 519 40,000  Level FlightAware Transoceanic
Wed 07:42:00 PM 42.0723 -151.9570 272° West 451 519 40,000  Level FlightAware Transoceanic
Wed 07:43:00 PM 42.0765 -152.1245 272° West 451 519 40,000  Level FlightAware Transoceanic
Wed 07:44:00 PM 42.0805 -152.2921 272° West 451 519 40,000  Level FlightAware Transoceanic
Wed 07:45:00 PM 42.0843 -152.4596 272° West 451 519 40,000  Level FlightAware Transoceanic
Wed 07:46:00 PM 42.0878 -152.6272 272° West 451 519 40,000  Level FlightAware Transoceanic
Wed 07:46:18 PM 42.0833 -152.5667 272° West 445 512 40,000  Level Oakland Oceanic (ODAPS)
Wed 07:47:00 PM 42.0910 -152.7948 271° West 451 519 40,000  Level FlightAware Transoceanic
Wed 07:48:00 PM 42.0940 -152.9624 271° West 451 519 40,000  Level FlightAware Transoceanic
Wed 07:49:00 PM 42.0968 -153.1301 271° West 451 519 40,000  Level FlightAware Transoceanic
Wed 07:50:00 PM 42.0993 -153.2977 271° West 451 519 40,000  Level FlightAware Transoceanic
Wed 07:51:00 PM 42.1016 -153.4653 271° West 451 519 40,000  Level FlightAware Transoceanic
Wed 07:52:00 PM 42.1000 -153.5581 271° West 445 512 40,000  Level FlightAware Transoceanic
Wed 07:53:00 PM 42.1019 -153.7234 271° West 445 512 40,000  Level FlightAware Transoceanic
Wed 07:54:00 PM 42.1036 -153.8887 271° West 445 512 40,000  Level FlightAware Transoceanic
Wed 07:55:00 PM 42.1051 -154.0540 271° West 445 512 40,000  Level FlightAware Transoceanic
Wed 07:56:00 PM 42.1063 -154.2193 271° West 445 512 40,000  Level FlightAware Transoceanic
Wed 07:57:00 PM 42.1073 -154.3846 270° West 445 512 40,000  Level FlightAware Transoceanic
Wed 07:58:00 PM 42.1081 -154.5499 270° West 445 512 40,000  Level FlightAware Transoceanic
Wed 07:59:00 PM 42.1086 -154.7153 270° West 445 512 40,000  Level FlightAware Transoceanic
Wed 08:00:00 PM 42.1089 -154.8806 270° West 445 512 40,000  Level FlightAware Transoceanic
Wed 08:00:11 PM 42.1167 -154.8500 270° West 455 524 40,000  Level Oakland Oceanic (ODAPS)
Wed 08:01:00 PM 42.1089 -155.0459 270° West 445 512 40,000  Level FlightAware Transoceanic
Wed 08:02:00 PM 42.1087 -155.2112 270° West 445 512 40,000  Level FlightAware Transoceanic
Wed 08:03:00 PM 42.1083 -155.3766 270° West 445 512 40,000  Level FlightAware Transoceanic
Wed 08:04:00 PM 42.1076 -155.5419 270° West 445 512 40,000  Level FlightAware Transoceanic
Wed 08:05:00 PM 42.1067 -155.7072 270° West 445 512 40,000  Level FlightAware Transoceanic
Wed 08:06:00 PM 42.1118 -155.8812 269° West 455 524 40,000  Level FlightAware Transoceanic
Wed 08:07:00 PM 42.1101 -156.0531 269° West 455 524 40,000  Level FlightAware Transoceanic
Wed 08:08:00 PM 42.1081 -156.2249 269° West 455 524 40,000  Level FlightAware Transoceanic
Wed 08:09:00 PM 42.1059 -156.3967 269° West 455 524 40,000  Level FlightAware Transoceanic
Wed 08:10:00 PM 42.1034 -156.5685 269° West 455 524 40,000  Level FlightAware Transoceanic
Wed 08:11:00 PM 42.1006 -156.7403 269° West 455 524 40,000  Level FlightAware Transoceanic
Wed 08:12:00 PM 42.0976 -156.9121 269° West 455 524 40,000  Level FlightAware Transoceanic
Wed 08:13:00 PM 42.0944 -157.0839 268° West 455 524 40,000  Level FlightAware Transoceanic
Wed 08:14:00 PM 42.0909 -157.2556 268° West 455 524 40,000  Level FlightAware Transoceanic
Wed 08:14:02 PM 42.0833 -157.2333 269° West 466 536 40,000  Level Oakland Oceanic (ODAPS)
Wed 08:15:00 PM 42.0871 -157.4274 268° West 455 524 40,000  Level FlightAware Transoceanic
Wed 08:16:00 PM 42.0831 -157.5991 268° West 455 524 40,000  Level FlightAware Transoceanic
Wed 08:17:00 PM 42.0788 -157.7708 268° West 455 524 40,000  Level FlightAware Transoceanic
Wed 08:18:00 PM 42.0743 -157.9424 268° West 455 524 40,000  Level FlightAware Transoceanic
Wed 08:19:00 PM 42.0695 -158.1141 268° West 455 524 40,000  Level FlightAware Transoceanic
Wed 08:20:00 PM 42.0599 -158.2717 268° West 466 536 40,000  Level FlightAware Transoceanic
Wed 08:21:00 PM 42.0550 -158.4446 268° West 466 536 40,000  Level FlightAware Transoceanic
Wed 08:22:00 PM 42.0500 -158.6176 268° West 466 536 40,000  Level FlightAware Transoceanic
Wed 08:23:00 PM 42.0446 -158.7905 268° West 466 536 40,000  Level FlightAware Transoceanic
Wed 08:24:00 PM 42.0390 -158.9634 267° West 466 536 40,000  Level FlightAware Transoceanic
Wed 08:25:00 PM 42.0332 -159.1362 267° West 466 536 40,000  Level FlightAware Transoceanic
Wed 08:26:00 PM 42.0271 -159.3091 267° West 466 536 40,000  Level FlightAware Transoceanic
Wed 08:27:00 PM 42.0207 -159.4819 267° West 466 536 40,000  Level FlightAware Transoceanic
Wed 08:27:54 PM 42.0167 -159.6333 267° West 464 534 40,000  Level Oakland Oceanic (ODAPS)
Wed 08:28:00 PM 42.0140 -159.6546 267° West 466 536 40,000  Level FlightAware Transoceanic
Wed 08:29:00 PM 42.0071 -159.8273 267° West 466 536 40,000  Level FlightAware Transoceanic
Wed 08:30:00 PM 42.0000 -160.0000 252° West 466 536 40,000  Level FlightAware Transoceanic
Wed 08:30:12 PM 42.0000 -160.0000 252° West 470 541 40,000  Level Oakland Oceanic (ODAPS)
Wed 08:31:00 PM 41.9593 -160.1656 252° West 466 536 40,000  Level FlightAware Transoceanic
Wed 08:32:00 PM 41.9184 -160.3310 252° West 466 536 40,000  Level FlightAware Transoceanic
Wed 08:33:00 PM 41.8773 -160.4962 251° West 466 536 40,000  Level FlightAware Transoceanic
Wed 08:34:00 PM 41.8359 -160.6611 251° West 464 534 40,000  Level FlightAware Transoceanic
Wed 08:35:00 PM 41.7943 -160.8259 251° West 464 534 40,000  Level FlightAware Transoceanic
Wed 08:36:00 PM 41.7524 -160.9904 251° West 470 541 40,000  Level FlightAware Transoceanic
Wed 08:37:00 PM 41.7104 -161.1548 251° West 470 541 40,000  Level FlightAware Transoceanic
Wed 08:38:00 PM 41.6680 -161.3189 251° West 470 541 40,000  Level FlightAware Transoceanic
Wed 08:39:00 PM 41.6255 -161.4828 251° West 470 541 40,000  Level FlightAware Transoceanic
Wed 08:40:00 PM 41.5827 -161.6465 251° West 470 541 40,000  Level FlightAware Transoceanic
Wed 08:41:00 PM 41.5397 -161.8099 251° West 470 541 40,000  Level FlightAware Transoceanic
Wed 08:41:47 PM 41.5167 -161.9333 250° West 475 547 40,000  Level Oakland Oceanic (ODAPS)
Wed 08:42:00 PM 41.4964 -161.9731 250° West 470 541 40,000  Level FlightAware Transoceanic
Wed 08:43:00 PM 41.4529 -162.1362 250° West 470 541 40,000  Level FlightAware Transoceanic
Wed 08:44:00 PM 41.4092 -162.2990 250° West 470 541 40,000  Level FlightAware Transoceanic
Wed 08:45:00 PM 41.3653 -162.4616 250° West 470 541 40,000  Level FlightAware Transoceanic
Wed 08:46:00 PM 41.3211 -162.6239 250° West 470 541 40,000  Level FlightAware Transoceanic
Wed 08:47:00 PM 41.2908 -162.7668 250° West 475 547 40,000  Level FlightAware Transoceanic
Wed 08:48:00 PM 41.2449 -162.9328 250° West 475 547 40,000  Level FlightAware Transoceanic
Wed 08:49:00 PM 41.1987 -163.0986 250° West 475 547 40,000  Level FlightAware Transoceanic
Wed 08:50:00 PM 41.1524 -163.2641 250° West 475 547 40,000  Level FlightAware Transoceanic
Wed 08:51:00 PM 41.1058 -163.4294 249° West 475 547 40,000  Level FlightAware Transoceanic
Wed 08:52:00 PM 41.0589 -163.5944 249° West 475 547 40,000  Level FlightAware Transoceanic
Wed 08:53:00 PM 41.0118 -163.7593 249° West 475 547 40,000  Level FlightAware Transoceanic
Wed 08:54:00 PM 40.9645 -163.9238 249° West 475 547 40,000  Level FlightAware Transoceanic
Wed 08:55:00 PM 40.9170 -164.0882 249° West 475 547 40,000  Level FlightAware Transoceanic
Wed 08:55:39 PM 40.9000 -164.1333 249° West 473 544 40,000  Level Oakland Oceanic (ODAPS)
Wed 08:56:00 PM 40.8692 -164.2523 249° West 475 547 40,000  Level FlightAware Transoceanic
Wed 08:57:00 PM 40.8212 -164.4162 249° West 475 547 40,000  Level FlightAware Transoceanic
Wed 08:58:00 PM 40.7729 -164.5798 249° West 475 547 40,000  Level FlightAware Transoceanic
Wed 08:59:00 PM 40.7244 -164.7432 249° West 475 547 40,000  Level FlightAware Transoceanic
Wed 09:00:00 PM 40.6757 -164.9064 248° West 475 547 40,000  Level FlightAware Transoceanic
Wed 09:01:00 PM 40.6268 -165.0693 248° West 475 547 40,000  Level FlightAware Transoceanic
Wed 09:02:00 PM 40.5725 -165.2384 248° West 473 544 40,000  Level FlightAware Transoceanic
Wed 09:03:00 PM 40.5249 -165.3954 248° West 473 544 40,000  Level FlightAware Transoceanic
Wed 09:04:00 PM 40.4770 -165.5522 248° West 473 544 40,000  Level FlightAware Transoceanic
Wed 09:05:00 PM 40.4290 -165.7087 248° West 473 544 40,000  Level FlightAware Transoceanic
Wed 09:06:00 PM 40.3807 -165.8650 248° West 473 544 40,000  Level FlightAware Transoceanic
Wed 09:07:00 PM 40.3322 -166.0211 248° West 473 544 40,000  Level FlightAware Transoceanic
Wed 09:08:00 PM 40.2835 -166.1770 248° West 473 544 40,000  Level FlightAware Transoceanic
Wed 09:09:00 PM 40.2346 -166.3326 248° West 473 544 40,000  Level FlightAware Transoceanic
Wed 09:09:30 PM 40.2333 -166.3167 248° West 459 528 40,000  Level Oakland Oceanic (ODAPS)
Wed 09:10:00 PM 40.1855 -166.4881 247° West 473 544 40,000  Level FlightAware Transoceanic
Wed 09:11:00 PM 40.1362 -166.6432 247° West 473 544 40,000  Level FlightAware Transoceanic
Wed 09:12:00 PM 40.0866 -166.7982 247° West 473 544 40,000  Level FlightAware Transoceanic
Wed 09:13:00 PM 40.0369 -166.9529 247° West 473 544 40,000  Level FlightAware Transoceanic
Wed 09:14:00 PM 39.9870 -167.1074 247° West 473 544 40,000  Level FlightAware Transoceanic
Wed 09:15:00 PM 39.9480 -167.2126 247° West 459 528 40,000  Level FlightAware Transoceanic
Wed 09:16:00 PM 39.8998 -167.3612 247° West 459 528 40,000  Level FlightAware Transoceanic
Wed 09:17:00 PM 39.8514 -167.5096 247° West 459 528 40,000  Level FlightAware Transoceanic
Wed 09:18:00 PM 39.8028 -167.6578 247° West 459 528 40,000  Level FlightAware Transoceanic
Wed 09:19:00 PM 39.7540 -167.8058 247° West 459 528 40,000  Level FlightAware Transoceanic
Wed 09:20:00 PM 39.7050 -167.9535 247° West 459 528 40,000  Level FlightAware Transoceanic
Wed 09:21:00 PM 39.6559 -168.1010 247° West 459 528 40,000  Level FlightAware Transoceanic
Wed 09:22:00 PM 39.6065 -168.2484 246° West 459 528 40,000  Level FlightAware Transoceanic
Wed 09:23:00 PM 39.5570 -168.3955 246° West 459 528 40,000  Level FlightAware Transoceanic
Wed 09:23:23 PM 39.5500 -168.4000 247° West 452 520 40,000  Level Oakland Oceanic (ODAPS)
Wed 09:24:00 PM 39.5073 -168.5424 246° West 459 528 40,000  Level FlightAware Transoceanic
Wed 09:25:00 PM 39.4574 -168.6891 246° West 459 528 40,000  Level FlightAware Transoceanic
Wed 09:26:00 PM 39.4073 -168.8356 246° West 459 528 40,000  Level FlightAware Transoceanic
Wed 09:27:00 PM 39.3570 -168.9819 246° West 459 528 40,000  Level FlightAware Transoceanic
Wed 09:28:00 PM 39.3065 -169.1280 246° West 459 528 40,000  Level FlightAware Transoceanic
Wed 09:29:00 PM 39.2527 -169.2758 246° West 452 520 40,000  Level FlightAware Transoceanic
Wed 09:30:00 PM 39.2025 -169.4211 246° West 452 520 40,000  Level FlightAware Transoceanic
Wed 09:31:00 PM 39.1522 -169.5661 246° West 452 520 40,000  Level FlightAware Transoceanic
Wed 09:32:00 PM 39.1016 -169.7110 246° West 452 520 40,000  Level FlightAware Transoceanic
Wed 09:33:00 PM 39.0509 -169.8556 246° West 452 520 40,000  Level FlightAware Transoceanic
Wed 09:34:00 PM 39.0000 -170.0000 259° West 452 520 40,000  Level FlightAware Transoceanic
Wed 09:34:07 PM 39.0000 -170.0000 259° West 462 532 40,000  Level Oakland Oceanic (ODAPS)
Wed 09:35:00 PM 38.9746 -170.1654 259° West 452 520 40,000  Level FlightAware Transoceanic
Wed 09:36:00 PM 38.9490 -170.3307 259° West 452 520 40,000  Level FlightAware Transoceanic
Wed 09:37:00 PM 38.9231 -170.4959 259° West 452 520 40,000  Level FlightAware Transoceanic
Wed 09:37:14 PM 38.9167 -170.5000 259° West 471 542 40,000  Level Oakland Oceanic (ODAPS)
Wed 09:38:00 PM 38.8970 -170.6609 258° West 452 520 40,000  Level FlightAware Transoceanic
Wed 09:39:00 PM 38.8707 -170.8258 258° West 452 520 40,000  Level FlightAware Transoceanic
Wed 09:40:00 PM 38.8467 -170.9749 258° West 462 532 40,000  Level FlightAware Transoceanic
Wed 09:41:00 PM 38.8203 -171.1370 258° West 462 532 40,000  Level FlightAware Transoceanic
Wed 09:42:00 PM 38.7938 -171.2990 258° West 462 532 40,000  Level FlightAware Transoceanic
Wed 09:43:00 PM 38.7572 -171.4879 258° West 471 542 40,000  Level FlightAware Transoceanic
Wed 09:44:00 PM 38.7299 -171.6521 258° West 471 542 40,000  Level FlightAware Transoceanic
Wed 09:45:00 PM 38.7023 -171.8162 258° West 471 542 40,000  Level FlightAware Transoceanic
Wed 09:46:00 PM 38.6744 -171.9802 258° West 471 542 40,000  Level FlightAware Transoceanic
Wed 09:47:00 PM 38.6464 -172.1440 258° West 471 542 40,000  Level FlightAware Transoceanic
Wed 09:48:00 PM 38.6181 -172.3077 257° West 471 542 40,000  Level FlightAware Transoceanic
Wed 09:49:00 PM 38.5895 -172.4713 257° West 471 542 40,000  Level FlightAware Transoceanic
Wed 09:50:00 PM 38.5608 -172.6348 257° West 471 542 40,000  Level FlightAware Transoceanic
Wed 09:51:00 PM 38.5318 -172.7981 257° West 471 542 40,000  Level FlightAware Transoceanic
Wed 09:51:07 PM 38.5500 -172.6833 257° West 478 550 40,000  Level Oakland Oceanic (ODAPS)
Wed 09:52:00 PM 38.5026 -172.9613 257° West 471 542 40,000  Level FlightAware Transoceanic
Wed 09:53:00 PM 38.4732 -173.1243 257° West 471 542 40,000  Level FlightAware Transoceanic
Wed 09:54:00 PM 38.4435 -173.2872 257° West 471 542 40,000  Level FlightAware Transoceanic
Wed 09:55:00 PM 38.4136 -173.4500 257° West 471 542 40,000  Level FlightAware Transoceanic
Wed 09:56:00 PM 38.3835 -173.6127 257° West 471 542 40,000  Level FlightAware Transoceanic
Wed 09:57:00 PM 38.3698 -173.6762 257° West 478 550 40,000  Level FlightAware Transoceanic
Wed 09:58:00 PM 38.3390 -173.8412 257° West 478 550 40,000  Level FlightAware Transoceanic
Wed 09:59:00 PM 38.3079 -174.0060 256° West 478 550 40,000  Level FlightAware Transoceanic
Wed 10:00:00 PM 38.2766 -174.1707 256° West 478 550 40,000  Level FlightAware Transoceanic
Wed 10:01:00 PM 38.2450 -174.3353 256° West 478 550 40,000  Level FlightAware Transoceanic
Wed 10:02:00 PM 38.2133 -174.4997 256° West 478 550 40,000  Level FlightAware Transoceanic
Wed 10:03:00 PM 38.1813 -174.6640 256° West 478 550 40,000  Level FlightAware Transoceanic
Wed 10:04:00 PM 38.1491 -174.8282 256° West 478 550 40,000  Level FlightAware Transoceanic
Wed 10:04:58 PM 38.1333 -174.9167 256° West 482 555 40,000  Level Oakland Oceanic (ODAPS)
Wed 10:05:00 PM 38.1166 -174.9921 256° West 478 550 40,000  Level FlightAware Transoceanic
Wed 10:06:00 PM 38.0839 -175.1560 256° West 478 550 40,000  Level FlightAware Transoceanic
Wed 10:07:00 PM 38.0510 -175.3197 256° West 478 550 40,000  Level FlightAware Transoceanic
Wed 10:08:00 PM 38.0179 -175.4832 256° West 478 550 40,000  Level FlightAware Transoceanic
Wed 10:09:00 PM 37.9845 -175.6466 255° West 478 550 40,000  Level FlightAware Transoceanic
Wed 10:10:00 PM 37.9509 -175.8099 255° West 478 550 40,000  Level FlightAware Transoceanic
Wed 10:11:00 PM 37.9311 -175.9125 255° West 482 555 40,000  Level FlightAware Transoceanic
Wed 10:12:00 PM 37.8966 -176.0779 255° West 482 555 40,000  Level FlightAware Transoceanic
Wed 10:13:00 PM 37.8619 -176.2432 255° West 482 555 40,000  Level FlightAware Transoceanic
Wed 10:14:00 PM 37.8269 -176.4083 255° West 482 555 40,000  Level FlightAware Transoceanic
Wed 10:15:00 PM 37.7917 -176.5732 255° West 482 555 40,000  Level FlightAware Transoceanic
Wed 10:16:00 PM 37.7562 -176.7380 255° West 482 555 40,000  Level FlightAware Transoceanic
Wed 10:17:00 PM 37.7206 -176.9027 255° West 482 555 40,000  Level FlightAware Transoceanic
Wed 10:18:00 PM 37.6847 -177.0672 255° West 482 555 40,000  Level FlightAware Transoceanic
Wed 10:18:50 PM 37.6667 -177.1833 254° West 489 563 40,000  Level Oakland Oceanic (ODAPS)
Wed 10:19:00 PM 37.6485 -177.2315 254° West 482 555 40,000  Level FlightAware Transoceanic
Wed 10:20:00 PM 37.6122 -177.3957 254° West 482 555 40,000  Level FlightAware Transoceanic
Wed 10:21:00 PM 37.5756 -177.5597 254° West 482 555 40,000  Level FlightAware Transoceanic
Wed 10:22:00 PM 37.5388 -177.7235 254° West 482 555 40,000  Level FlightAware Transoceanic
Wed 10:23:00 PM 37.5018 -177.8872 254° West 482 555 40,000  Level FlightAware Transoceanic
Wed 10:24:00 PM 37.4645 -178.0507 254° West 482 555 40,000  Level FlightAware Transoceanic
Wed 10:25:00 PM 37.4390 -178.1831 254° West 489 563 40,000  Level FlightAware Transoceanic
Wed 10:26:00 PM 37.4002 -178.3492 254° West 489 563 40,000  Level FlightAware Transoceanic
Wed 10:27:00 PM 37.3613 -178.5150 253° West 489 563 40,000  Level FlightAware Transoceanic
Wed 10:28:00 PM 37.3220 -178.6807 253° West 489 563 40,000  Level FlightAware Transoceanic
Wed 10:29:00 PM 37.2826 -178.8463 253° West 489 563 40,000  Level FlightAware Transoceanic
Wed 10:30:00 PM 37.2429 -179.0116 253° West 489 563 40,000  Level FlightAware Transoceanic
Wed 10:31:00 PM 37.2030 -179.1768 253° West 489 563 40,000  Level FlightAware Transoceanic
Wed 10:32:00 PM 37.1628 -179.3418 253° West 489 563 40,000  Level FlightAware Transoceanic
Wed 10:32:43 PM 37.1333 -179.4667 253° West 488 562 40,000  Level Oakland Oceanic (ODAPS)
Wed 10:33:00 PM 37.1225 -179.5066 253° West 489 563 40,000  Level FlightAware Transoceanic
Wed 10:34:00 PM 37.0819 -179.6712 253° West 489 563 40,000  Level FlightAware Transoceanic
Wed 10:35:00 PM 37.0410 -179.8357 253° West 489 563 40,000  Level FlightAware Transoceanic
Wed 10:36:00 PM 37.0000 -180.0000 259° West 489 563 40,000  Level FlightAware Transoceanic
Wed 10:36:00 PM 37.0000 180.0000 259° West 496 571 40,000  Level Oakland Oceanic (ODAPS)
Wed 10:37:00 PM 36.9740 179.8322 259° West 489 563 40,000  Level FlightAware Transoceanic
Wed 10:38:00 PM 36.9478 179.6645 259° West 489 563 40,000  Level FlightAware Transoceanic
Wed 10:39:00 PM 36.9214 179.4969 259° West 488 562 40,000  Level FlightAware Transoceanic
Wed 10:40:00 PM 36.8948 179.3294 259° West 488 562 40,000  Level FlightAware Transoceanic
Wed 10:41:00 PM 36.8679 179.1620 259° West 488 562 40,000  Level FlightAware Transoceanic
Wed 10:42:00 PM 36.8380 178.9781 258° West 496 571 40,000  Level FlightAware Transoceanic
Wed 10:43:00 PM 36.8102 178.8082 258° West 496 571 40,000  Level FlightAware Transoceanic
Wed 10:44:00 PM 36.7821 178.6384 258° West 496 571 40,000  Level FlightAware Transoceanic
Wed 10:45:00 PM 36.7537 178.4687 258° West 496 571 40,000  Level FlightAware Transoceanic
Wed 10:46:00 PM 36.7252 178.2992 258° West 496 571 40,000  Level FlightAware Transoceanic
Wed 10:46:43 PM 36.7167 178.2500 258° West 500 575 40,000  Level Oakland Oceanic (ODAPS)
Wed 10:47:00 PM 36.6964 178.1298 258° West 496 571 40,000  Level FlightAware Transoceanic
Wed 10:48:00 PM 36.6673 177.9606 258° West 496 571 40,000  Level FlightAware Transoceanic
Wed 10:49:00 PM 36.6380 177.7914 258° West 496 571 40,000  Level FlightAware Transoceanic
Wed 10:50:00 PM 36.6085 177.6224 258° West 496 571 40,000  Level FlightAware Transoceanic
Wed 10:51:00 PM 36.5787 177.4535 258° West 496 571 40,000  Level FlightAware Transoceanic
Wed 10:52:00 PM 36.5487 177.2848 257° West 496 571 40,000  Level FlightAware Transoceanic
Wed 10:53:00 PM 36.5107 177.0741 257° West 500 575 40,000  Level FlightAware Transoceanic
Wed 10:54:00 PM 36.4804 176.9066 257° West 500 575 40,000  Level FlightAware Transoceanic
Wed 10:55:00 PM 36.4498 176.7392 257° West 500 575 40,000  Level FlightAware Transoceanic
Wed 10:56:00 PM 36.4190 176.5720 257° West 500 575 40,000  Level FlightAware Transoceanic
Wed 10:57:00 PM 36.3879 176.4050 257° West 500 575 40,000  Level FlightAware Transoceanic
Wed 10:58:00 PM 36.3566 176.2380 257° West 500 575 40,000  Level FlightAware Transoceanic
Wed 10:59:00 PM 36.3251 176.0712 257° West 500 575 40,000  Level FlightAware Transoceanic
Wed 11:00:00 PM 36.2934 175.9045 257° West 500 575 40,000  Level FlightAware Transoceanic
Wed 11:00:27 PM 36.3000 175.9333 257° West 505 581 40,000  Level Oakland Oceanic (ODAPS)
Wed 11:01:00 PM 36.2614 175.7380 257° West 500 575 40,000  Level FlightAware Transoceanic
Wed 11:02:00 PM 36.2291 175.5716 256° West 500 575 40,000  Level FlightAware Transoceanic
Wed 11:03:00 PM 36.1967 175.4053 256° West 500 575 40,000  Level FlightAware Transoceanic
Wed 11:04:00 PM 36.1640 175.2392 256° West 500 575 40,000  Level FlightAware Transoceanic
Wed 11:05:00 PM 36.1311 175.0732 256° West 500 575 40,000  Level FlightAware Transoceanic
Wed 11:06:00 PM 36.1037 174.9312 256° West 505 581 40,000  Level FlightAware Transoceanic
Wed 11:07:00 PM 36.0702 174.7647 256° West 505 581 40,000  Level FlightAware Transoceanic
Wed 11:08:00 PM 36.0365 174.5983 256° West 505 581 40,000  Level FlightAware Transoceanic
Wed 11:09:00 PM 36.0025 174.4321 256° West 505 581 40,000  Level FlightAware Transoceanic
Wed 11:10:00 PM 35.9683 174.2660 256° West 505 581 40,000  Level FlightAware Transoceanic
Wed 11:11:00 PM 35.9338 174.1001 256° West 505 581 40,000  Level FlightAware Transoceanic
Wed 11:12:00 PM 35.8992 173.9342 255° West 505 581 40,000  Level FlightAware Transoceanic
Wed 11:13:00 PM 35.8643 173.7686 255° West 505 581 40,000  Level FlightAware Transoceanic
Wed 11:14:00 PM 35.8292 173.6031 255° West 505 581 40,000  Level FlightAware Transoceanic
Wed 11:14:18 PM 35.8333 173.6167 255° West 503 579 40,000  Level Oakland Oceanic (ODAPS)
Wed 11:15:00 PM 35.7938 173.4377 255° West 505 581 40,000  Level FlightAware Transoceanic
Wed 11:16:00 PM 35.7582 173.2725 255° West 505 581 40,000  Level FlightAware Transoceanic
Wed 11:17:00 PM 35.7224 173.1074 255° West 505 581 40,000  Level FlightAware Transoceanic
Wed 11:18:00 PM 35.6864 172.9425 255° West 505 581 40,000  Level FlightAware Transoceanic
Wed 11:19:00 PM 35.6502 172.7777 255° West 505 581 40,000  Level FlightAware Transoceanic
Wed 11:20:00 PM 35.6168 172.6229 255° West 503 579 40,000  Level FlightAware Transoceanic
Wed 11:21:00 PM 35.5799 172.4578 255° West 503 579 40,000  Level FlightAware Transoceanic
Wed 11:22:00 PM 35.5428 172.2929 254° West 503 579 40,000  Level FlightAware Transoceanic
Wed 11:23:00 PM 35.5055 172.1281 254° West 503 579 40,000  Level FlightAware Transoceanic
Wed 11:24:00 PM 35.4679 171.9635 254° West 503 579 40,000  Level FlightAware Transoceanic
Wed 11:25:00 PM 35.4301 171.7990 254° West 503 579 40,000  Level FlightAware Transoceanic
Wed 11:26:00 PM 35.3922 171.6346 254° West 503 579 40,000  Level FlightAware Transoceanic
Wed 11:27:00 PM 35.3539 171.4705 254° West 503 579 40,000  Level FlightAware Transoceanic
Wed 11:28:00 PM 35.3155 171.3065 254° West 503 579 40,000  Level FlightAware Transoceanic
Wed 11:28:11 PM 35.3167 171.3167 254° West 500 575 40,000  Level Oakland Oceanic (ODAPS)
Wed 11:29:00 PM 35.2768 171.1426 254° West 503 579 40,000  Level FlightAware Transoceanic
Wed 11:30:00 PM 35.2379 170.9789 254° West 503 579 40,000  Level FlightAware Transoceanic
Wed 11:31:00 PM 35.1988 170.8154 254° West 503 579 40,000  Level FlightAware Transoceanic
Wed 11:32:00 PM 35.1595 170.6520 254° West 503 579 40,000  Level FlightAware Transoceanic
Wed 11:33:00 PM 35.1199 170.4887 253° West 503 579 40,000  Level FlightAware Transoceanic
Wed 11:34:00 PM 35.0805 170.3282 253° West 500 575 40,000  Level FlightAware Transoceanic
Wed 11:35:00 PM 35.0404 170.1640 253° West 500 575 40,000  Level FlightAware Transoceanic
Wed 11:36:00 PM 35.0000 170.0000 266° West 500 575 40,000  Level FlightAware Transoceanic
Wed 11:36:13 PM 35.0000 170.0000 266° West 509 586 40,000  Level Oakland Oceanic (ODAPS)
Wed 11:37:00 PM 34.9901 169.8316 266° West 500 575 40,000  Level FlightAware Transoceanic
Wed 11:38:00 PM 34.9799 169.6633 266° West 500 575 40,000  Level FlightAware Transoceanic
Wed 11:39:00 PM 34.9696 169.4949 266° West 500 575 40,000  Level FlightAware Transoceanic
Wed 11:40:00 PM 34.9589 169.3267 266° West 500 575 40,000  Level FlightAware Transoceanic
Wed 11:41:00 PM 34.9481 169.1585 265° West 500 575 40,000  Level FlightAware Transoceanic
Wed 11:42:00 PM 34.9359 168.9732 265° West 509 586 40,000  Level FlightAware Transoceanic
Wed 11:42:02 PM 34.9333 169.0000 265° West 508 585 40,000  Level Oakland Oceanic (ODAPS)
Wed 11:43:00 PM 34.9243 168.8022 265° West 509 586 40,000  Level FlightAware Transoceanic
Wed 11:44:00 PM 34.9126 168.6313 265° West 509 586 40,000  Level FlightAware Transoceanic
Wed 11:45:00 PM 34.9006 168.4604 265° West 509 586 40,000  Level FlightAware Transoceanic
Wed 11:46:00 PM 34.8883 168.2896 265° West 509 586 40,000  Level FlightAware Transoceanic
Wed 11:47:00 PM 34.8758 168.1188 265° West 509 586 40,000  Level FlightAware Transoceanic
Wed 11:48:00 PM 34.8611 167.9719 265° West 508 585 40,000  Level FlightAware Transoceanic
Wed 11:49:00 PM 34.8482 167.8007 265° West 508 585 40,000  Level FlightAware Transoceanic
Wed 11:50:00 PM 34.8350 167.6296 265° West 508 585 40,000  Level FlightAware Transoceanic
Wed 11:51:00 PM 34.8217 167.4585 265° West 508 585 40,000  Level FlightAware Transoceanic
Wed 11:52:00 PM 34.8081 167.2875 264° West 508 585 40,000  Level FlightAware Transoceanic
Wed 11:53:00 PM 34.7942 167.1166 264° West 508 585 40,000  Level FlightAware Transoceanic
Wed 11:54:00 PM 34.7802 166.9457 264° West 508 585 40,000  Level FlightAware Transoceanic
Wed 11:55:00 PM 34.7658 166.7748 264° West 508 585 40,000  Level FlightAware Transoceanic
Wed 11:55:54 PM 34.7667 166.6667 264° West 505 581 40,000  Level Oakland Oceanic (ODAPS)
Wed 11:56:00 PM 34.7513 166.6041 264° West 508 585 40,000  Level FlightAware Transoceanic
Wed 11:57:00 PM 34.7365 166.4333 264° West 508 585 40,000  Level FlightAware Transoceanic
Wed 11:58:00 PM 34.7214 166.2627 264° West 508 585 40,000  Level FlightAware Transoceanic
Wed 11:59:00 PM 34.7062 166.0921 264° West 508 585 40,000  Level FlightAware Transoceanic
Thu 12:00:00 AM 34.6907 165.9216 264° West 508 585 40,000  Level FlightAware Transoceanic
Thu 12:01:00 AM 34.6749 165.7511 264° West 508 585 40,000  Level FlightAware Transoceanic
Thu 12:02:00 AM 34.6724 165.6335 263° West 505 581 40,000  Level FlightAware Transoceanic
Thu 12:03:00 AM 34.6558 165.4615 263° West 505 581 40,000  Level FlightAware Transoceanic
Thu 12:04:00 AM 34.6390 165.2896 263° West 505 581 40,000  Level FlightAware Transoceanic
Thu 12:05:00 AM 34.6220 165.1178 263° West 505 581 40,000  Level FlightAware Transoceanic
Thu 12:06:00 AM 34.6047 164.9460 263° West 505 581 40,000  Level FlightAware Transoceanic
Thu 12:07:00 AM 34.5872 164.7743 263° West 505 581 40,000  Level FlightAware Transoceanic
Thu 12:08:00 AM 34.5694 164.6027 263° West 505 581 40,000  Level FlightAware Transoceanic
Thu 12:09:00 AM 34.5514 164.4312 263° West 505 581 40,000  Level FlightAware Transoceanic
Thu 12:10:00 AM 34.5332 164.2597 263° West 505 581 40,000  Level FlightAware Transoceanic
Thu 12:11:00 AM 34.5147 164.0883 262° West 505 581 40,000  Level FlightAware Transoceanic
Thu 12:12:00 AM 34.4960 163.9170 262° West 505 581 40,000  Level FlightAware Transoceanic
Thu 12:13:00 AM 34.4770 163.7458 262° West 505 581 40,000  Level FlightAware Transoceanic
Thu 12:14:00 AM 34.4578 163.5746 262° West 505 581 40,000  Level FlightAware Transoceanic
Thu 12:15:00 AM 34.4384 163.4036 262° West 505 581 40,000  Level FlightAware Transoceanic
Thu 12:16:00 AM 34.4187 163.2326 262° West 505 581 40,000  Level FlightAware Transoceanic
Thu 12:17:00 AM 34.3988 163.0616 262° West 505 581 40,000  Level FlightAware Transoceanic
Thu 12:18:00 AM 34.3786 162.8908 262° West 505 581 40,000  Level FlightAware Transoceanic
Thu 12:19:00 AM 34.3582 162.7201 262° West 505 581 40,000  Level FlightAware Transoceanic
Thu 12:20:00 AM 34.3376 162.5494 262° West 505 581 40,000  Level FlightAware Transoceanic
Thu 12:21:00 AM 34.3167 162.3788 262° West 505 581 40,000  Level FlightAware Transoceanic
Thu 12:22:00 AM 34.2957 162.2083 261° West 505 581 40,000  Level FlightAware Transoceanic
Thu 12:23:00 AM 34.2743 162.0379 261° West 505 581 40,000  Level FlightAware Transoceanic
Thu 12:24:00 AM 34.2528 161.8676 261° West 505 581 40,000  Level FlightAware Transoceanic
Thu 12:25:00 AM 34.2309 161.6974 261° West 505 581 40,000  Level FlightAware Transoceanic
Thu 12:26:00 AM 34.2089 161.5272 261° West 505 581 40,000  Level FlightAware Transoceanic
Thu 12:27:00 AM 34.1866 161.3571 261° West 505 581 40,000  Level FlightAware Transoceanic
Thu 12:28:00 AM 34.1641 161.1872 261° West 505 581 40,000  Level FlightAware Transoceanic
Thu 12:29:00 AM 34.1414 161.0173 261° West 505 581 40,000  Level FlightAware Transoceanic
Thu 12:30:00 AM 34.1184 160.8475 261° West 505 581 40,000  Level FlightAware Transoceanic
Thu 12:31:00 AM 34.0952 160.6778 261° West 505 581 40,000  Level FlightAware Transoceanic
Thu 12:32:00 AM 34.0717 160.5082 260° West 505 581 40,000  Level FlightAware Transoceanic
Thu 12:33:00 AM 34.0480 160.3387 260° West 505 581 40,000  Level FlightAware Transoceanic
Thu 12:34:00 AM 34.0241 160.1693 260° West 505 581 40,000  Level FlightAware Transoceanic
Thu 12:35:00 AM 34.0000 160.0000 273° West 505 581 40,000  Level FlightAware Transoceanic
Thu 12:36:00 AM 34.0065 159.8363 273° West 505 581 40,000  Level FlightAware Transoceanic
Thu 12:37:00 AM 34.0128 159.6726 273° West 505 581 40,000  Level FlightAware Transoceanic
Thu 12:38:00 AM 34.0189 159.5089 273° West 505 581 40,000  Level FlightAware Transoceanic
Thu 12:39:00 AM 34.0248 159.3451 272° West 505 581 40,000  Level FlightAware Transoceanic
Thu 12:40:00 AM 34.0305 159.1813 272° West 505 581 40,000  Level FlightAware Transoceanic
Thu 12:41:00 AM 34.0359 159.0175 272° West 505 581 40,000  Level FlightAware Transoceanic
Thu 12:42:00 AM 34.0411 158.8537 272° West 505 581 40,000  Level FlightAware Transoceanic
Thu 12:43:00 AM 34.0462 158.6899 272° West 505 581 40,000  Level FlightAware Transoceanic
Thu 12:44:00 AM 34.0510 158.5260 272° West 505 581 40,000  Level FlightAware Transoceanic
Thu 12:45:00 AM 34.0555 158.3621 272° West 505 581 40,000  Level FlightAware Transoceanic
Thu 12:46:00 AM 34.0599 158.1982 272° West 505 581 40,000  Level FlightAware Transoceanic
Thu 12:47:00 AM 34.0640 158.0343 272° West 505 581 40,000  Level FlightAware Transoceanic
Thu 12:48:00 AM 34.0680 157.8704 272° West 505 581 40,000  Level FlightAware Transoceanic
Thu 12:49:00 AM 34.0717 157.7064 272° West 505 581 40,000  Level FlightAware Transoceanic
Thu 12:50:00 AM 34.0751 157.5425 271° West 505 581 40,000  Level FlightAware Transoceanic
Thu 12:51:00 AM 34.0784 157.3785 271° West 505 581 40,000  Level FlightAware Transoceanic
Thu 12:52:00 AM 34.0815 157.2145 271° West 505 581 40,000  Level FlightAware Transoceanic
Thu 12:53:00 AM 34.0843 157.0505 271° West 505 581 40,000  Level FlightAware Transoceanic
Thu 12:54:00 AM 34.0869 156.8865 271° West 505 581 40,000  Level FlightAware Transoceanic
Thu 12:55:00 AM 34.0893 156.7225 271° West 505 581 40,000  Level FlightAware Transoceanic
Thu 12:56:00 AM 34.0915 156.5585 271° West 505 581 40,000  Level FlightAware Transoceanic
Thu 12:57:00 AM 34.0935 156.3945 271° West 505 581 40,000  Level FlightAware Transoceanic
Thu 12:58:00 AM 34.0952 156.2304 271° West 505 581 40,000  Level FlightAware Transoceanic
Thu 12:59:00 AM 34.0967 156.0664 271° West 505 581 40,000  Level FlightAware Transoceanic
Thu 01:00:00 AM 34.0980 155.9023 271° West 505 581 40,000  Level FlightAware Transoceanic
Thu 01:01:00 AM 34.0991 155.7383 270° West 505 581 40,000  Level FlightAware Transoceanic
Thu 01:02:00 AM 34.1000 155.5742 270° West 505 581 40,000  Level FlightAware Transoceanic
Thu 01:03:00 AM 34.1007 155.4102 270° West 505 581 40,000  Level FlightAware Transoceanic
Thu 01:04:00 AM 34.1011 155.2461 270° West 505 581 40,000  Level FlightAware Transoceanic
Thu 01:05:00 AM 34.1013 155.0820 270° West 505 581 40,000  Level FlightAware Transoceanic
Thu 01:06:00 AM 34.1013 154.9180 270° West 505 581 40,000  Level FlightAware Transoceanic
Thu 01:07:00 AM 34.1011 154.7539 270° West 505 581 40,000  Level FlightAware Transoceanic
Thu 01:08:00 AM 34.1007 154.5898 270° West 505 581 40,000  Level FlightAware Transoceanic
Thu 01:09:00 AM 34.1000 154.4258 270° West 505 581 40,000  Level FlightAware Transoceanic
Thu 01:10:00 AM 34.0991 154.2617 270° West 505 581 40,000  Level FlightAware Transoceanic
Thu 01:11:00 AM 34.0980 154.0977 269° West 505 581 40,000  Level FlightAware Transoceanic
Thu 01:12:00 AM 34.0967 153.9336 269° West 505 581 40,000  Level FlightAware Transoceanic
Thu 01:13:00 AM 34.0952 153.7696 269° West 505 581 40,000  Level FlightAware Transoceanic
Thu 01:14:00 AM 34.0935 153.6055 269° West 505 581 40,000  Level FlightAware Transoceanic
Thu 01:15:00 AM 34.0915 153.4415 269° West 505 581 40,000  Level FlightAware Transoceanic
Thu 01:16:00 AM 34.0893 153.2775 269° West 505 581 40,000  Level FlightAware Transoceanic
Thu 01:17:00 AM 34.0869 153.1135 269° West 505 581 40,000  Level FlightAware Transoceanic
Thu 01:18:00 AM 34.0843 152.9495 269° West 505 581 40,000  Level FlightAware Transoceanic
Thu 01:19:00 AM 34.0815 152.7855 269° West 505 581 40,000  Level FlightAware Transoceanic
Thu 01:20:00 AM 34.0784 152.6215 269° West 505 581 40,000  Level FlightAware Transoceanic
Thu 01:21:00 AM 34.0751 152.4575 269° West 505 581 40,000  Level FlightAware Transoceanic
Thu 01:22:00 AM 34.0717 152.2936 268° West 505 581 40,000  Level FlightAware Transoceanic
Thu 01:23:00 AM 34.0680 152.1296 268° West 505 581 40,000  Level FlightAware Transoceanic
Thu 01:24:00 AM 34.0640 151.9657 268° West 505 581 40,000  Level FlightAware Transoceanic
Thu 01:25:00 AM 34.0599 151.8018 268° West 505 581 40,000  Level FlightAware Transoceanic
Thu 01:26:00 AM 34.0555 151.6379 268° West 505 581 40,000  Level FlightAware Transoceanic
Thu 01:27:00 AM 34.0510 151.4740 268° West 505 581 40,000  Level FlightAware Transoceanic
Thu 01:28:00 AM 34.0462 151.3101 268° West 505 581 40,000  Level FlightAware Transoceanic
Thu 01:29:00 AM 34.0411 151.1463 268° West 505 581 40,000  Level FlightAware Transoceanic
Thu 01:30:00 AM 34.0359 150.9825 268° West 505 581 40,000  Level FlightAware Transoceanic
Thu 01:31:00 AM 34.0305 150.8187 268° West 505 581 40,000  Level FlightAware Transoceanic
Thu 01:32:00 AM 34.0248 150.6549 268° West 505 581 40,000  Level FlightAware Transoceanic
Thu 01:33:00 AM 34.0189 150.4911 267° West 505 581 40,000  Level FlightAware Transoceanic
Thu 01:34:00 AM 34.0128 150.3274 267° West 505 581 40,000  Level FlightAware Transoceanic
Thu 01:35:00 AM 34.0065 150.1637 267° West 505 581 40,000  Level FlightAware Transoceanic
Thu 01:36:00 AM 34.0004 150.0094 267° West  Level FlightAware Approximate
Thu 01:37:00 AM 33.9940 149.8551 267° West  Level FlightAware Approximate
Thu 01:38:00 AM 34.0117 149.8650 276° West  Level FlightAware Approximate
Thu 01:39:00 AM 34.0248 149.7113 276° West  Level FlightAware Approximate
Thu 01:40:00 AM 34.0377 149.5576 276° West  Level FlightAware Approximate
Thu 01:41:00 AM 34.0505 149.4037 276° West  Level FlightAware Approximate
Thu 01:42:00 AM 34.0630 149.2499 276° West  Level FlightAware Approximate
Thu 01:43:00 AM 34.0754 149.0960 276° West  Level FlightAware Approximate
Thu 01:44:00 AM 34.0875 148.9421 275° West  Level FlightAware Approximate
Thu 01:45:00 AM 34.0995 148.7881 275° West  Level FlightAware Approximate
Thu 01:46:00 AM 34.1112 148.6347 275° West  Level FlightAware Approximate
Thu 01:47:00 AM 34.1227 148.4813 275° West  Level FlightAware Approximate
Thu 01:48:00 AM 34.1341 148.3278 275° West  Level FlightAware Approximate
Thu 01:49:00 AM 34.1452 148.1743 275° West  Level FlightAware Approximate
Thu 01:50:00 AM 34.1562 148.0208 275° West  Level FlightAware Approximate
Thu 01:51:00 AM 34.1670 147.8672 275° West  Level FlightAware Approximate
Thu 01:52:00 AM 34.1776 147.7135 275° West  Level FlightAware Approximate
Thu 01:53:00 AM 34.1879 147.5599 275° West  Level FlightAware Approximate
Thu 01:54:00 AM 34.1981 147.4062 275° West  Level FlightAware Approximate
Thu 01:55:00 AM 34.2081 147.2524 275° West  Level FlightAware Approximate
Thu 01:56:00 AM 34.2180 147.0986 274° West  Level FlightAware Approximate
Thu 01:57:00 AM 34.2276 146.9448 274° West  Level FlightAware Approximate
Thu 01:58:00 AM 34.2370 146.7910 274° West  Level FlightAware Approximate
Thu 01:59:00 AM 34.2463 146.6371 274° West  Level FlightAware Approximate
Thu 02:00:00 AM 34.2553 146.4832 274° West  Level FlightAware Approximate
Thu 02:01:00 AM 34.2641 146.3292 274° West  Level FlightAware Approximate
Thu 02:02:00 AM 34.2728 146.1752 274° West  Level FlightAware Approximate
Thu 02:03:00 AM 34.2813 146.0212 274° West  Level FlightAware Approximate
Thu 02:04:00 AM 34.2978 145.8682 279° West  Level FlightAware Approximate
Thu 02:05:00 AM 34.3167 145.7155 279° West  Level FlightAware Approximate
Thu 02:06:00 AM 34.3355 145.5628 279° West  Level FlightAware Approximate
Thu 02:07:00 AM 34.3541 145.4099 278° West  Level FlightAware Approximate
Thu 02:08:00 AM 34.3725 145.2570 278° West  Level FlightAware Approximate
Thu 02:09:00 AM 34.3907 145.1041 278° West  Level FlightAware Approximate
Thu 02:10:00 AM 34.4088 144.9510 278° West  Level FlightAware Approximate
Thu 02:11:00 AM 34.4264 144.7979 278° West  Level FlightAware Approximate
Thu 02:12:00 AM 34.4437 144.6447 278° West  Level FlightAware Approximate
Thu 02:13:00 AM 34.4608 144.4914 278° West  Level FlightAware Approximate
Thu 02:14:00 AM 34.4777 144.3381 278° West  Level FlightAware Approximate
Thu 02:15:00 AM 34.4944 144.1846 278° West  Level FlightAware Approximate
Thu 02:15:35 AM 34.8250 143.9350 277° West 455 524 40,000  Level FlightAware ADS-B
Thu 02:16:00 AM 34.5110 144.0312 277° West  Level FlightAware Approximate
Thu 02:16:08 AM 34.8490 143.8760 296° West 454 522 40,000  Level FlightAware ADS-B
Thu 02:16:49 AM 34.8930 143.7640 296° West 453 521 40,000  Level FlightAware ADS-B
Thu 02:17:27 AM 34.9230 143.6880 296° West 451 519 40,000  Level FlightAware ADS-B
Thu 02:18:02 AM 34.9570 143.6030 296° West 451 519 40,000  Level FlightAware ADS-B
Thu 02:18:32 AM 34.9860 143.5280 295° West 450 518 40,000  Level FlightAware ADS-B
Thu 02:19:06 AM 35.0150 143.4550 296° West 449 517 40,000 -228 Level FlightAware ADS-B
Thu 02:19:51 AM 35.0570 143.3470 295° West 448 516 39,700 -1,325 Descending FlightAware ADS-B
Thu 02:20:23 AM 35.0850 143.2750 295° West 440 506 38,300 -2,696 Descending FlightAware ADS-B
Thu 02:21:00 AM 35.1190 143.1900 296° West 441 507 36,600 -2,384 Descending FlightAware ADS-B
Thu 02:21:36 AM 35.1490 143.1130 295° West 429 494 35,400 -2,028 Descending FlightAware ADS-B
Thu 02:22:11 AM 35.1760 143.0410 295° West 423 487 34,200 -2,189 Descending FlightAware ADS-B
Thu 02:22:50 AM 35.2110 142.9520 296° West 421 484 32,700 -2,000 Descending FlightAware ADS-B
Thu 02:23:23 AM 35.2360 142.8870 295° West 397 457 31,800 -1,853 Descending FlightAware ADS-B
Thu 02:23:58 AM 35.2630 142.8180 296° West 385 443 30,600 -2,031 Descending FlightAware ADS-B
Thu 02:24:28 AM 35.2850 142.7600 295° West 376 433 29,600 -1,433 Descending FlightAware ADS-B
Thu 02:25:05 AM 35.3040 142.7090 295° West 373 429 29,000 -1,622 Descending FlightAware ADS-B
Thu 02:25:42 AM 35.3390 142.6200 296° West 359 413 27,600 -1,917 Descending FlightAware ADS-B
Thu 02:26:17 AM 35.3640 142.5540 295° West 355 409 26,700 -1,457 Descending FlightAware ADS-B
Thu 02:26:52 AM 35.3890 142.4870 295° West 358 412 25,900 -1,292 Descending FlightAware ADS-B
Thu 02:27:22 AM 35.4080 142.4390 296° West 353 406 25,300 -1,184 Descending FlightAware ADS-B
Thu 02:28:08 AM 35.4390 142.3580 295° West 329 379 24,400 -1,390 Descending FlightAware ADS-B
Thu 02:28:44 AM 35.4620 142.2960 295° West 317 365 23,400 -1,690 Descending FlightAware ADS-B
Thu 02:29:19 AM 35.4810 142.2460 295° West 316 364 22,400 -1,543 Descending FlightAware ADS-B
Thu 02:29:54 AM 35.5050 142.1840 295° West 303 349 21,600 -975 Descending FlightAware ADS-B
Thu 02:30:39 AM 35.5300 142.1160 294° West 302 348 21,100 -1,275 Descending FlightAware ADS-B
Thu 02:31:14 AM 35.5500 142.0630 295° West 299 344 19,900 -1,680 Descending FlightAware ADS-B
Thu 02:31:54 AM 35.5750 141.9960 295° West 299 344 19,000 -1,364 Descending FlightAware ADS-B
Thu 02:32:20 AM 35.5890 141.9540 292° West 295 339 18,400 -1,256 Descending FlightAware ADS-B
Thu 02:32:37 AM 35.5920 141.9260 278° West 288 331 18,100 -1,250 Descending FlightAware ADS-B
Thu 02:33:08 AM 35.5890 141.8790 266° West 283 326 17,400 -1,343 Descending FlightAware ADS-B
Thu 02:33:44 AM 35.5860 141.8190 266° West 280 322 16,600 -1,200 Descending FlightAware ADS-B
Thu 02:34:18 AM 35.5830 141.7670 266° West 284 327 16,000 -514 Descending FlightAware ADS-B
Thu 02:34:54 AM 35.5800 141.7080 266° West 282 325 16,000 -609 Level FlightAware ADS-B
Thu 02:35:27 AM 35.5770 141.6530 266° West 281 323 15,300 -1,130 Descending FlightAware ADS-B
Thu 02:36:03 AM 35.5740 141.5970 266° West 275 316 14,700 -857 Descending FlightAware ADS-B
Thu 02:36:51 AM 35.5700 141.5310 266° West 269 310 14,100 -811 Descending FlightAware ADS-B
Thu 02:37:17 AM 35.5730 141.4850 275° West 265 305 13,700 -811 Descending FlightAware ADS-B
Thu 02:37:28 AM 35.5770 141.4700 288° West 264 304 13,600 -764 Descending FlightAware ADS-B
Thu 02:38:12 AM 35.6030 141.4130 299° West 267 307 13,000 -857 Descending FlightAware ADS-B
Thu 02:38:45 AM 35.6240 141.3660 299° West 267 307 12,500 -794 Descending FlightAware ADS-B
Thu 02:39:20 AM 35.6440 141.3230 300° West 268 308 12,100 -750 Descending FlightAware ADS-B
Thu 02:39:57 AM 35.6670 141.2710 299° West 270 311 11,600 -857 Descending FlightAware ADS-B
Thu 02:40:30 AM 35.6870 141.2260 299° West 267 307 11,100 -882 Descending FlightAware ADS-B
Thu 02:41:05 AM 35.7090 141.1790 300° West 256 295 10,600 -769 Descending FlightAware ADS-B
Thu 02:41:48 AM 35.7330 141.1240 298° West 255 293 10,100 -750 Descending FlightAware ADS-B
Thu 02:42:09 AM 35.7450 141.0990 301° West 253 291 9,800 -714 Descending FlightAware ADS-B
Thu 02:42:30 AM 35.7560 141.0730 298° West 252 290 9,600 -571 Descending FlightAware ADS-B
Thu 02:42:51 AM 35.7700 141.0430 300° West 250 288 9,400 -500 Descending FlightAware ADS-B
Thu 02:43:06 AM 35.7780 141.0240 297° West 251 289 9,300 -343 Descending FlightAware ADS-B
Thu 02:43:26 AM 35.7890 140.9990 298° West 250 288 9,200 -300 Descending FlightAware ADS-B
Thu 02:43:46 AM 35.8010 140.9730 300° West 250 288 9,100 -514 Descending FlightAware ADS-B
Thu 02:44:01 AM 35.8080 140.9540 294° West 249 287 8,900 -462 Descending FlightAware ADS-B
Thu 02:44:12 AM 35.8090 140.9390 275° West 253 291 8,900 -387 Level FlightAware ADS-B
Thu 02:44:32 AM 35.8010 140.9130 249° West 259 298 8,700 -414 Descending FlightAware ADS-B
Thu 02:44:41 AM 35.7920 140.9040 219° Southwest 257 296 8,700  Level FlightAware ADS-B
Thu 02:44:51 AM 35.7800 140.8980 202° Southwest 269 310 8,700  Level FlightAware ADS-B
Thu 02:45:01 AM 35.7670 140.8950 191° South 263 303 8,700  Level FlightAware ADS-B
Thu 02:45:32 AM 35.7350 140.8880 190° South 270 311 8,700  Level FlightAware ADS-B
Thu 02:45:50 AM 35.7120 140.8830 190° South 266 306 8,700  Level FlightAware ADS-B
Thu 02:46:15 AM 35.6780 140.8760 189° South 265 305 8,700  Level FlightAware ADS-B
Thu 02:46:37 AM 35.6530 140.8710 189° South 260 299 8,700 -130 Level FlightAware ADS-B
Thu 02:47:01 AM 35.6260 140.8650 190° South 249 287 8,600 -625 Descending FlightAware ADS-B
Thu 02:47:25 AM 35.5950 140.8580 190° South 245 282 8,200 -882 Descending FlightAware ADS-B
Thu 02:47:35 AM 35.5860 140.8570 185° South 244 281 8,100 -800 Descending FlightAware ADS-B
Thu 02:47:55 AM 35.5630 140.8520 190° South 245 282 7,800 -789 Descending FlightAware ADS-B
Thu 02:48:13 AM 35.5430 140.8480 189° South 232 267 7,600 -947 Descending FlightAware ADS-B
Thu 02:48:33 AM 35.5200 140.8440 188° South 230 265 7,200 -1,077 Descending FlightAware ADS-B
Thu 02:48:52 AM 35.5010 140.8400 190° South 229 264 6,900 -1,029 Descending FlightAware ADS-B
Thu 02:49:08 AM 35.4810 140.8360 189° South 228 262 6,600 -1,135 Descending FlightAware ADS-B
Thu 02:49:29 AM 35.4590 140.8280 196° South 238 274 6,200 -1,286 Descending FlightAware ADS-B
Thu 02:49:50 AM 35.4370 140.8180 200° South 241 277 5,700 -1,317 Descending FlightAware ADS-B
Thu 02:50:10 AM 35.4170 140.8060 206° Southwest 231 266 5,300 -968 Descending FlightAware ADS-B
Thu 02:50:21 AM 35.4100 140.7950 232° Southwest 230 265 5,200 -774 Descending FlightAware ADS-B
Thu 02:50:41 AM 35.4020 140.7700 249° West 224 258 4,900 -1,167 Descending FlightAware ADS-B
Thu 02:50:57 AM 35.3980 140.7520 255° West 228 262 4,500 -1,500 Descending FlightAware ADS-B
Thu 02:51:01 AM 35.3970 140.7450 260° West 229 264 4,400 -1,161 Descending FlightAware ADS-B
Thu 02:51:28 AM 35.3990 140.7120 274° West 229 264 3,900 -1,000 Descending FlightAware ADS-B
Thu 02:51:43 AM 35.4040 140.6930 288° West 221 254 3,700 -333 Descending FlightAware ADS-B
Thu 02:52:04 AM 35.4110 140.6810 306° West 221 254 3,700  Level FlightAware ADS-B
Thu 02:52:25 AM 35.4310 140.6500 308° West 215 247 3,700  Level FlightAware ADS-B
Thu 02:52:40 AM 35.4400 140.6360 308° West 215 247 3,700  Level FlightAware ADS-B
Thu 02:53:00 AM 35.4540 140.6170 312° West 220 253 3,700  Level FlightAware ADS-B
Thu 02:53:16 AM 35.4640 140.6020 309° West 214 246 3,700  Level FlightAware ADS-B
Thu 02:53:33 AM 35.4740 140.5880 311° West 218 251 3,700  Level FlightAware ADS-B
Thu 02:53:43 AM 35.4830 140.5780 318° Northwest 216 249 3,700  Level FlightAware ADS-B
Thu 02:53:59 AM 35.4900 140.5730 330° Northwest 208 239 3,700  Level FlightAware ADS-B
Thu 02:54:16 AM 35.5110 140.5580 330° Northwest 217 250 3,700  Level FlightAware ADS-B
Thu 02:54:41 AM 35.5340 140.5410 329° Northwest 209 241 3,700  Level FlightAware ADS-B
Thu 02:54:55 AM 35.5460 140.5330 332° Northwest 205 236 3,700  Level FlightAware ADS-B
Thu 02:55:15 AM 35.5620 140.5220 331° Northwest 205 236 3,700  Level FlightAware ADS-B
Thu 02:55:31 AM 35.5760 140.5120 330° Northwest 207 238 3,700 -667 Level FlightAware ADS-B
Thu 02:55:51 AM 35.5920 140.5000 329° Northwest 198 228 3,300 -1,200 Descending FlightAware ADS-B
Thu 02:56:11 AM 35.6070 140.4890 329° Northwest 192 221 2,900 -1,024 Descending FlightAware ADS-B
Thu 02:56:32 AM 35.6230 140.4780 331° Northwest 182 209 2,600 -909 Descending FlightAware ADS-B
Thu 02:56:44 AM 35.6310 140.4720 329° Northwest 176 203 2,400 -973 Descending FlightAware ADS-B
Thu 02:57:09 AM 35.6480 140.4590 328° Northwest 164 189 2,000 -977 Descending FlightAware ADS-B
Thu 02:57:27 AM 35.6600 140.4510 332° Northwest 164 189 1,700 -947 Descending FlightAware ADS-B
Thu 02:57:47 AM 35.6730 140.4420 331° Northwest 165 190 1,400 -833 Descending FlightAware ADS-B
Thu 02:58:03 AM 35.6840 140.4340 329° Northwest 158 182 1,200 -833 Descending FlightAware ADS-B
Thu 02:58:23 AM 35.6950 140.4260 329° Northwest 146 168 900 -750 Descending FlightAware ADS-B
Thu 02:58:35 AM 35.7020 140.4200 325° Northwest 145 167 800 -667 Descending FlightAware ADS-B
Thu 02:58:59 AM 35.7160 140.4110 332° Northwest 144 166 500 -783 Descending FlightAware ADS-B
Thu 02:59:21 AM 35.7280 140.4020 329° Northwest 145 167 200 -818 Descending FlightAware ADS-B
Thu 02:59:37 AM 35.7380 140.3940 327° Northwest 147 169 -750 Descending FlightAware ADS-B
Thu 03:00:02 AM 35.7510 140.3850 331° Northwest 147 169  Level FlightAware ADS-B

Login

Don't have an account? Register now (free) for customized features, flight alerts, and more!